<?xml version="1.0" encoding="UTF-8" standalone="no" ?>
<gpx xmlns="http://www.topografix.com/GPX/1/1" xmlns:xsi="http://www.w3.org/2001/XMLSchema-instance" xsi:schemaLocation="http://www.topografix.com/GPX/1/1 http://www.topografix.com/GPX/1/1/gpx.xsd" version="1.1" creator="VisuGPX - https://www.visugpx.com">
  <metadata>
    <name>Saint-Martin de Castillon - Caseneuve</name>
  </metadata>
  <trk>
    <name><![CDATA[03/12/2021 09:32:41  Saint-Martin de castillon - Caseneuve]]></name>
    <extensions>
      <line xmlns="http://www.topografix.com/GPX/gpx_style/0/2">
        <color>0000FF</color>
        <width>4</width>
      </line>
    </extensions>
    <trkseg>
      <trkpt lat="43.85439" lon="5.51971">
        <ele>317.20001220703</ele>
        <time>2021-12-03T08:32:41Z</time>
      </trkpt>
      <trkpt lat="43.85439" lon="5.51971">
        <ele>317.20001220703</ele>
        <time>2021-12-03T08:32:42Z</time>
      </trkpt>
      <trkpt lat="43.85435" lon="5.51968">
        <ele>317.39999389648</ele>
        <time>2021-12-03T08:33:27Z</time>
      </trkpt>
      <trkpt lat="43.85427" lon="5.51957">
        <ele>317.39999389648</ele>
        <time>2021-12-03T08:34:12Z</time>
      </trkpt>
      <trkpt lat="43.85424" lon="5.51953">
        <ele>317.20001220703</ele>
        <time>2021-12-03T08:34:25Z</time>
      </trkpt>
      <trkpt lat="43.8542" lon="5.51944">
        <ele>317</ele>
        <time>2021-12-03T08:34:32Z</time>
      </trkpt>
      <trkpt lat="43.85414" lon="5.51925">
        <ele>316.20001220703</ele>
        <time>2021-12-03T08:34:47Z</time>
      </trkpt>
      <trkpt lat="43.85434" lon="5.51922">
        <ele>316.60000610352</ele>
        <time>2021-12-03T08:35:02Z</time>
      </trkpt>
      <trkpt lat="43.85447" lon="5.51929">
        <ele>318.60000610352</ele>
        <time>2021-12-03T08:35:18Z</time>
      </trkpt>
      <trkpt lat="43.85448" lon="5.5193">
        <ele>318.79998779297</ele>
        <time>2021-12-03T08:35:20Z</time>
      </trkpt>
      <trkpt lat="43.8545" lon="5.51937">
        <ele>319.20001220703</ele>
        <time>2021-12-03T08:35:24Z</time>
      </trkpt>
      <trkpt lat="43.85444" lon="5.51964">
        <ele>319.79998779297</ele>
        <time>2021-12-03T08:35:41Z</time>
      </trkpt>
      <trkpt lat="43.85445" lon="5.51973">
        <ele>320.20001220703</ele>
        <time>2021-12-03T08:35:50Z</time>
      </trkpt>
      <trkpt lat="43.8546" lon="5.51982">
        <ele>321.79998779297</ele>
        <time>2021-12-03T08:36:10Z</time>
      </trkpt>
      <trkpt lat="43.85478" lon="5.51991">
        <ele>323.39999389648</ele>
        <time>2021-12-03T08:36:30Z</time>
      </trkpt>
      <trkpt lat="43.85488" lon="5.51994">
        <ele>325</ele>
        <time>2021-12-03T08:36:48Z</time>
      </trkpt>
      <trkpt lat="43.85509" lon="5.51997">
        <ele>327</ele>
        <time>2021-12-03T08:37:12Z</time>
      </trkpt>
      <trkpt lat="43.85526" lon="5.52002">
        <ele>329</ele>
        <time>2021-12-03T08:37:36Z</time>
      </trkpt>
      <trkpt lat="43.85547" lon="5.52002">
        <ele>330.39999389648</ele>
        <time>2021-12-03T08:37:56Z</time>
      </trkpt>
      <trkpt lat="43.85557" lon="5.52003">
        <ele>331.79998779297</ele>
        <time>2021-12-03T08:38:16Z</time>
      </trkpt>
      <trkpt lat="43.85572" lon="5.5199">
        <ele>333.20001220703</ele>
        <time>2021-12-03T08:38:36Z</time>
      </trkpt>
      <trkpt lat="43.85564" lon="5.51979">
        <ele>336.20001220703</ele>
        <time>2021-12-03T08:38:56Z</time>
      </trkpt>
      <trkpt lat="43.8555" lon="5.51964">
        <ele>338.79998779297</ele>
        <time>2021-12-03T08:39:21Z</time>
      </trkpt>
      <trkpt lat="43.85548" lon="5.51948">
        <ele>340.79998779297</ele>
        <time>2021-12-03T08:39:39Z</time>
      </trkpt>
      <trkpt lat="43.85554" lon="5.51937">
        <ele>341.79998779297</ele>
        <time>2021-12-03T08:39:50Z</time>
      </trkpt>
      <trkpt lat="43.85563" lon="5.51918">
        <ele>343.39999389648</ele>
        <time>2021-12-03T08:40:09Z</time>
      </trkpt>
      <trkpt lat="43.85577" lon="5.51901">
        <ele>345.20001220703</ele>
        <time>2021-12-03T08:40:34Z</time>
      </trkpt>
      <trkpt lat="43.85595" lon="5.51884">
        <ele>347.20001220703</ele>
        <time>2021-12-03T08:40:57Z</time>
      </trkpt>
      <trkpt lat="43.85615" lon="5.51863">
        <ele>350</ele>
        <time>2021-12-03T08:41:25Z</time>
      </trkpt>
      <trkpt lat="43.85627" lon="5.51855">
        <ele>352.20001220703</ele>
        <time>2021-12-03T08:41:46Z</time>
      </trkpt>
      <trkpt lat="43.85638" lon="5.51849">
        <ele>354.60000610352</ele>
        <time>2021-12-03T08:42:07Z</time>
      </trkpt>
      <trkpt lat="43.85647" lon="5.51831">
        <ele>356.39999389648</ele>
        <time>2021-12-03T08:42:29Z</time>
      </trkpt>
      <trkpt lat="43.85644" lon="5.51817">
        <ele>358</ele>
        <time>2021-12-03T08:42:43Z</time>
      </trkpt>
      <trkpt lat="43.85656" lon="5.51787">
        <ele>360.20001220703</ele>
        <time>2021-12-03T08:43:04Z</time>
      </trkpt>
      <trkpt lat="43.85661" lon="5.51783">
        <ele>360.60000610352</ele>
        <time>2021-12-03T08:43:09Z</time>
      </trkpt>
      <trkpt lat="43.8567" lon="5.51771">
        <ele>362.20001220703</ele>
        <time>2021-12-03T08:43:25Z</time>
      </trkpt>
      <trkpt lat="43.85673" lon="5.5177">
        <ele>362.39999389648</ele>
        <time>2021-12-03T08:43:28Z</time>
      </trkpt>
      <trkpt lat="43.85676" lon="5.51767">
        <ele>362.79998779297</ele>
        <time>2021-12-03T08:43:32Z</time>
      </trkpt>
      <trkpt lat="43.85683" lon="5.51753">
        <ele>365</ele>
        <time>2021-12-03T08:43:48Z</time>
      </trkpt>
      <trkpt lat="43.85685" lon="5.51742">
        <ele>367</ele>
        <time>2021-12-03T08:44:01Z</time>
      </trkpt>
      <trkpt lat="43.85694" lon="5.51724">
        <ele>369.39999389648</ele>
        <time>2021-12-03T08:44:22Z</time>
      </trkpt>
      <trkpt lat="43.85707" lon="5.51706">
        <ele>372.39999389648</ele>
        <time>2021-12-03T08:44:43Z</time>
      </trkpt>
      <trkpt lat="43.85712" lon="5.51683">
        <ele>375.60000610352</ele>
        <time>2021-12-03T08:45:06Z</time>
      </trkpt>
      <trkpt lat="43.85718" lon="5.51658">
        <ele>378.39999389648</ele>
        <time>2021-12-03T08:45:26Z</time>
      </trkpt>
      <trkpt lat="43.85723" lon="5.51636">
        <ele>381.39999389648</ele>
        <time>2021-12-03T08:45:49Z</time>
      </trkpt>
      <trkpt lat="43.8573" lon="5.51608">
        <ele>383.79998779297</ele>
        <time>2021-12-03T08:46:11Z</time>
      </trkpt>
      <trkpt lat="43.85735" lon="5.5159">
        <ele>385.79998779297</ele>
        <time>2021-12-03T08:46:27Z</time>
      </trkpt>
      <trkpt lat="43.85736" lon="5.51575">
        <ele>387.39999389648</ele>
        <time>2021-12-03T08:46:41Z</time>
      </trkpt>
      <trkpt lat="43.85732" lon="5.51568">
        <ele>388.39999389648</ele>
        <time>2021-12-03T08:46:48Z</time>
      </trkpt>
      <trkpt lat="43.8573" lon="5.51564">
        <ele>388.79998779297</ele>
        <time>2021-12-03T08:46:52Z</time>
      </trkpt>
      <trkpt lat="43.85725" lon="5.51555">
        <ele>389.60000610352</ele>
        <time>2021-12-03T08:47:01Z</time>
      </trkpt>
      <trkpt lat="43.85722" lon="5.51549">
        <ele>390.60000610352</ele>
        <time>2021-12-03T08:47:08Z</time>
      </trkpt>
      <trkpt lat="43.85723" lon="5.5154">
        <ele>391.79998779297</ele>
        <time>2021-12-03T08:47:14Z</time>
      </trkpt>
      <trkpt lat="43.85724" lon="5.51537">
        <ele>392</ele>
        <time>2021-12-03T08:47:16Z</time>
      </trkpt>
      <trkpt lat="43.85725" lon="5.51534">
        <ele>392.39999389648</ele>
        <time>2021-12-03T08:47:19Z</time>
      </trkpt>
      <trkpt lat="43.85733" lon="5.51514">
        <ele>395</ele>
        <time>2021-12-03T08:47:36Z</time>
      </trkpt>
      <trkpt lat="43.85735" lon="5.51504">
        <ele>395.79998779297</ele>
        <time>2021-12-03T08:47:44Z</time>
      </trkpt>
      <trkpt lat="43.85741" lon="5.51483">
        <ele>397.60000610352</ele>
        <time>2021-12-03T08:48:03Z</time>
      </trkpt>
      <trkpt lat="43.85746" lon="5.51467">
        <ele>399.60000610352</ele>
        <time>2021-12-03T08:48:18Z</time>
      </trkpt>
      <trkpt lat="43.85753" lon="5.51447">
        <ele>402.60000610352</ele>
        <time>2021-12-03T08:48:39Z</time>
      </trkpt>
      <trkpt lat="43.85759" lon="5.51424">
        <ele>405.60000610352</ele>
        <time>2021-12-03T08:48:57Z</time>
      </trkpt>
      <trkpt lat="43.85761" lon="5.51401">
        <ele>408.60000610352</ele>
        <time>2021-12-03T08:49:16Z</time>
      </trkpt>
      <trkpt lat="43.85762" lon="5.51396">
        <ele>409.39999389648</ele>
        <time>2021-12-03T08:49:21Z</time>
      </trkpt>
      <trkpt lat="43.85764" lon="5.51388">
        <ele>410.79998779297</ele>
        <time>2021-12-03T08:49:33Z</time>
      </trkpt>
      <trkpt lat="43.85766" lon="5.51375">
        <ele>412</ele>
        <time>2021-12-03T08:49:54Z</time>
      </trkpt>
      <trkpt lat="43.85767" lon="5.5137">
        <ele>412.39999389648</ele>
        <time>2021-12-03T08:49:58Z</time>
      </trkpt>
      <trkpt lat="43.8577" lon="5.5136">
        <ele>413.79998779297</ele>
        <time>2021-12-03T08:50:07Z</time>
      </trkpt>
      <trkpt lat="43.85778" lon="5.51338">
        <ele>416.20001220703</ele>
        <time>2021-12-03T08:50:27Z</time>
      </trkpt>
      <trkpt lat="43.85783" lon="5.51331">
        <ele>417</ele>
        <time>2021-12-03T08:50:34Z</time>
      </trkpt>
      <trkpt lat="43.85788" lon="5.51326">
        <ele>417.60000610352</ele>
        <time>2021-12-03T08:50:41Z</time>
      </trkpt>
      <trkpt lat="43.858" lon="5.51314">
        <ele>419.20001220703</ele>
        <time>2021-12-03T08:50:59Z</time>
      </trkpt>
      <trkpt lat="43.85813" lon="5.51303">
        <ele>420.39999389648</ele>
        <time>2021-12-03T08:51:16Z</time>
      </trkpt>
      <trkpt lat="43.85828" lon="5.51296">
        <ele>422</ele>
        <time>2021-12-03T08:51:36Z</time>
      </trkpt>
      <trkpt lat="43.85846" lon="5.51301">
        <ele>424.39999389648</ele>
        <time>2021-12-03T08:51:58Z</time>
      </trkpt>
      <trkpt lat="43.8586" lon="5.51301">
        <ele>427.39999389648</ele>
        <time>2021-12-03T08:52:21Z</time>
      </trkpt>
      <trkpt lat="43.85868" lon="5.51304">
        <ele>428.60000610352</ele>
        <time>2021-12-03T08:52:29Z</time>
      </trkpt>
      <trkpt lat="43.85883" lon="5.51304">
        <ele>429.39999389648</ele>
        <time>2021-12-03T08:52:45Z</time>
      </trkpt>
      <trkpt lat="43.85887" lon="5.51301">
        <ele>430.60000610352</ele>
        <time>2021-12-03T08:53:02Z</time>
      </trkpt>
      <trkpt lat="43.8591" lon="5.51296">
        <ele>433.20001220703</ele>
        <time>2021-12-03T08:53:28Z</time>
      </trkpt>
      <trkpt lat="43.85913" lon="5.51295">
        <ele>434.79998779297</ele>
        <time>2021-12-03T08:53:38Z</time>
      </trkpt>
      <trkpt lat="43.85925" lon="5.51284">
        <ele>436.39999389648</ele>
        <time>2021-12-03T08:53:59Z</time>
      </trkpt>
      <trkpt lat="43.85935" lon="5.5128">
        <ele>438.60000610352</ele>
        <time>2021-12-03T08:54:18Z</time>
      </trkpt>
      <trkpt lat="43.85946" lon="5.51274">
        <ele>441.60000610352</ele>
        <time>2021-12-03T08:54:37Z</time>
      </trkpt>
      <trkpt lat="43.85956" lon="5.51263">
        <ele>444.79998779297</ele>
        <time>2021-12-03T08:54:55Z</time>
      </trkpt>
      <trkpt lat="43.85955" lon="5.51256">
        <ele>446.79998779297</ele>
        <time>2021-12-03T08:55:05Z</time>
      </trkpt>
      <trkpt lat="43.85957" lon="5.51255">
        <ele>450</ele>
        <time>2021-12-03T08:55:26Z</time>
      </trkpt>
      <trkpt lat="43.85962" lon="5.51247">
        <ele>450.20001220703</ele>
        <time>2021-12-03T08:55:52Z</time>
      </trkpt>
      <trkpt lat="43.85962" lon="5.51243">
        <ele>450.60000610352</ele>
        <time>2021-12-03T08:56:07Z</time>
      </trkpt>
      <trkpt lat="43.85951" lon="5.51227">
        <ele>452.79998779297</ele>
        <time>2021-12-03T08:56:33Z</time>
      </trkpt>
      <trkpt lat="43.85944" lon="5.51218">
        <ele>453.60000610352</ele>
        <time>2021-12-03T08:56:41Z</time>
      </trkpt>
      <trkpt lat="43.85943" lon="5.51215">
        <ele>454</ele>
        <time>2021-12-03T08:56:44Z</time>
      </trkpt>
      <trkpt lat="43.85937" lon="5.51194">
        <ele>455.79998779297</ele>
        <time>2021-12-03T08:57:01Z</time>
      </trkpt>
      <trkpt lat="43.85936" lon="5.51193">
        <ele>456</ele>
        <time>2021-12-03T08:57:03Z</time>
      </trkpt>
      <trkpt lat="43.85936" lon="5.51192">
        <ele>457</ele>
        <time>2021-12-03T08:57:12Z</time>
      </trkpt>
      <trkpt lat="43.85935" lon="5.51191">
        <ele>457.79998779297</ele>
        <time>2021-12-03T08:57:19Z</time>
      </trkpt>
      <trkpt lat="43.85929" lon="5.51171">
        <ele>458.79998779297</ele>
        <time>2021-12-03T08:57:38Z</time>
      </trkpt>
      <trkpt lat="43.85927" lon="5.51149">
        <ele>460.60000610352</ele>
        <time>2021-12-03T08:57:59Z</time>
      </trkpt>
      <trkpt lat="43.85943" lon="5.5114">
        <ele>461.39999389648</ele>
        <time>2021-12-03T08:58:16Z</time>
      </trkpt>
      <trkpt lat="43.85948" lon="5.51138">
        <ele>461.60000610352</ele>
        <time>2021-12-03T08:58:22Z</time>
      </trkpt>
      <trkpt lat="43.85953" lon="5.51137">
        <ele>462</ele>
        <time>2021-12-03T08:58:29Z</time>
      </trkpt>
      <trkpt lat="43.85956" lon="5.51121">
        <ele>465</ele>
        <time>2021-12-03T08:59:05Z</time>
      </trkpt>
      <trkpt lat="43.85959" lon="5.51141">
        <ele>467.20001220703</ele>
        <time>2021-12-03T08:59:44Z</time>
      </trkpt>
      <trkpt lat="43.85959" lon="5.51142">
        <ele>467.20001220703</ele>
        <time>2021-12-03T08:59:46Z</time>
      </trkpt>
      <trkpt lat="43.85962" lon="5.51142">
        <ele>466.79998779297</ele>
        <time>2021-12-03T09:00:19Z</time>
      </trkpt>
      <trkpt lat="43.8596" lon="5.5114">
        <ele>467</ele>
        <time>2021-12-03T09:00:28Z</time>
      </trkpt>
      <trkpt lat="43.85958" lon="5.51134">
        <ele>467</ele>
        <time>2021-12-03T09:00:38Z</time>
      </trkpt>
      <trkpt lat="43.8596" lon="5.51131">
        <ele>467</ele>
        <time>2021-12-03T09:00:57Z</time>
      </trkpt>
      <trkpt lat="43.85967" lon="5.51105">
        <ele>467.20001220703</ele>
        <time>2021-12-03T09:01:11Z</time>
      </trkpt>
      <trkpt lat="43.85968" lon="5.51101">
        <ele>467.39999389648</ele>
        <time>2021-12-03T09:01:14Z</time>
      </trkpt>
      <trkpt lat="43.85972" lon="5.51102">
        <ele>468.60000610352</ele>
        <time>2021-12-03T09:01:25Z</time>
      </trkpt>
      <trkpt lat="43.85973" lon="5.511">
        <ele>468.79998779297</ele>
        <time>2021-12-03T09:01:27Z</time>
      </trkpt>
      <trkpt lat="43.85976" lon="5.51093">
        <ele>469.79998779297</ele>
        <time>2021-12-03T09:01:45Z</time>
      </trkpt>
      <trkpt lat="43.85978" lon="5.51086">
        <ele>470.79998779297</ele>
        <time>2021-12-03T09:01:59Z</time>
      </trkpt>
      <trkpt lat="43.85981" lon="5.51083">
        <ele>473.60000610352</ele>
        <time>2021-12-03T09:02:18Z</time>
      </trkpt>
      <trkpt lat="43.85975" lon="5.51101">
        <ele>474.39999389648</ele>
        <time>2021-12-03T09:02:36Z</time>
      </trkpt>
      <trkpt lat="43.85981" lon="5.51114">
        <ele>475.79998779297</ele>
        <time>2021-12-03T09:02:49Z</time>
      </trkpt>
      <trkpt lat="43.85985" lon="5.51119">
        <ele>477.60000610352</ele>
        <time>2021-12-03T09:03:10Z</time>
      </trkpt>
      <trkpt lat="43.85991" lon="5.51111">
        <ele>478.79998779297</ele>
        <time>2021-12-03T09:03:31Z</time>
      </trkpt>
      <trkpt lat="43.85998" lon="5.51122">
        <ele>480.20001220703</ele>
        <time>2021-12-03T09:03:45Z</time>
      </trkpt>
      <trkpt lat="43.86004" lon="5.51122">
        <ele>483.20001220703</ele>
        <time>2021-12-03T09:04:01Z</time>
      </trkpt>
      <trkpt lat="43.86015" lon="5.5112">
        <ele>484.39999389648</ele>
        <time>2021-12-03T09:04:15Z</time>
      </trkpt>
      <trkpt lat="43.86017" lon="5.5111">
        <ele>486.20001220703</ele>
        <time>2021-12-03T09:04:35Z</time>
      </trkpt>
      <trkpt lat="43.86022" lon="5.51096">
        <ele>488.39999389648</ele>
        <time>2021-12-03T09:04:53Z</time>
      </trkpt>
      <trkpt lat="43.86019" lon="5.51097">
        <ele>489</ele>
        <time>2021-12-03T09:05:18Z</time>
      </trkpt>
      <trkpt lat="43.86017" lon="5.51111">
        <ele>487.39999389648</ele>
        <time>2021-12-03T09:05:31Z</time>
      </trkpt>
      <trkpt lat="43.86017" lon="5.51112">
        <ele>487.20001220703</ele>
        <time>2021-12-03T09:05:32Z</time>
      </trkpt>
      <trkpt lat="43.8602" lon="5.51118">
        <ele>485.79998779297</ele>
        <time>2021-12-03T09:05:39Z</time>
      </trkpt>
      <trkpt lat="43.8603" lon="5.51125">
        <ele>485.20001220703</ele>
        <time>2021-12-03T09:05:52Z</time>
      </trkpt>
      <trkpt lat="43.86035" lon="5.51127">
        <ele>485.79998779297</ele>
        <time>2021-12-03T09:06:04Z</time>
      </trkpt>
      <trkpt lat="43.86045" lon="5.5112">
        <ele>486</ele>
        <time>2021-12-03T09:06:18Z</time>
      </trkpt>
      <trkpt lat="43.86059" lon="5.51108">
        <ele>487</ele>
        <time>2021-12-03T09:06:36Z</time>
      </trkpt>
      <trkpt lat="43.86062" lon="5.51097">
        <ele>487.60000610352</ele>
        <time>2021-12-03T09:06:55Z</time>
      </trkpt>
      <trkpt lat="43.86061" lon="5.51096">
        <ele>487.60000610352</ele>
        <time>2021-12-03T09:06:56Z</time>
      </trkpt>
      <trkpt lat="43.86053" lon="5.5108">
        <ele>488.79998779297</ele>
        <time>2021-12-03T09:07:13Z</time>
      </trkpt>
      <trkpt lat="43.86048" lon="5.51073">
        <ele>488.79998779297</ele>
        <time>2021-12-03T09:07:22Z</time>
      </trkpt>
      <trkpt lat="43.86034" lon="5.51071">
        <ele>487.39999389648</ele>
        <time>2021-12-03T09:07:41Z</time>
      </trkpt>
      <trkpt lat="43.86035" lon="5.51069">
        <ele>487.20001220703</ele>
        <time>2021-12-03T09:07:59Z</time>
      </trkpt>
      <trkpt lat="43.86048" lon="5.51076">
        <ele>487.79998779297</ele>
        <time>2021-12-03T09:08:18Z</time>
      </trkpt>
      <trkpt lat="43.86055" lon="5.51091">
        <ele>488</ele>
        <time>2021-12-03T09:08:37Z</time>
      </trkpt>
      <trkpt lat="43.86059" lon="5.51093">
        <ele>488.20001220703</ele>
        <time>2021-12-03T09:08:49Z</time>
      </trkpt>
      <trkpt lat="43.86065" lon="5.51095">
        <ele>487.20001220703</ele>
        <time>2021-12-03T09:09:06Z</time>
      </trkpt>
      <trkpt lat="43.86064" lon="5.51093">
        <ele>487</ele>
        <time>2021-12-03T09:09:54Z</time>
      </trkpt>
      <trkpt lat="43.86067" lon="5.51093">
        <ele>487</ele>
        <time>2021-12-03T09:10:17Z</time>
      </trkpt>
      <trkpt lat="43.86072" lon="5.51093">
        <ele>487</ele>
        <time>2021-12-03T09:10:20Z</time>
      </trkpt>
      <trkpt lat="43.86083" lon="5.51089">
        <ele>487.39999389648</ele>
        <time>2021-12-03T09:10:36Z</time>
      </trkpt>
      <trkpt lat="43.86086" lon="5.5109">
        <ele>487.79998779297</ele>
        <time>2021-12-03T09:10:40Z</time>
      </trkpt>
      <trkpt lat="43.86103" lon="5.51093">
        <ele>489.20001220703</ele>
        <time>2021-12-03T09:10:58Z</time>
      </trkpt>
      <trkpt lat="43.86109" lon="5.51093">
        <ele>489.79998779297</ele>
        <time>2021-12-03T09:11:04Z</time>
      </trkpt>
      <trkpt lat="43.86123" lon="5.51093">
        <ele>491.60000610352</ele>
        <time>2021-12-03T09:11:20Z</time>
      </trkpt>
      <trkpt lat="43.86131" lon="5.51088">
        <ele>493.20001220703</ele>
        <time>2021-12-03T09:11:31Z</time>
      </trkpt>
      <trkpt lat="43.86132" lon="5.51084">
        <ele>493.79998779297</ele>
        <time>2021-12-03T09:11:35Z</time>
      </trkpt>
      <trkpt lat="43.86135" lon="5.5106">
        <ele>495.79998779297</ele>
        <time>2021-12-03T09:11:55Z</time>
      </trkpt>
      <trkpt lat="43.8614" lon="5.51058">
        <ele>496.20001220703</ele>
        <time>2021-12-03T09:12:00Z</time>
      </trkpt>
      <trkpt lat="43.86151" lon="5.51059">
        <ele>496.60000610352</ele>
        <time>2021-12-03T09:12:19Z</time>
      </trkpt>
      <trkpt lat="43.86161" lon="5.51055">
        <ele>496.60000610352</ele>
        <time>2021-12-03T09:12:34Z</time>
      </trkpt>
      <trkpt lat="43.86162" lon="5.51051">
        <ele>496.60000610352</ele>
        <time>2021-12-03T09:12:37Z</time>
      </trkpt>
      <trkpt lat="43.86162" lon="5.51039">
        <ele>496.79998779297</ele>
        <time>2021-12-03T09:12:51Z</time>
      </trkpt>
      <trkpt lat="43.86161" lon="5.51014">
        <ele>497</ele>
        <time>2021-12-03T09:13:09Z</time>
      </trkpt>
      <trkpt lat="43.86162" lon="5.51008">
        <ele>497.39999389648</ele>
        <time>2021-12-03T09:13:13Z</time>
      </trkpt>
      <trkpt lat="43.86154" lon="5.50981">
        <ele>497.60000610352</ele>
        <time>2021-12-03T09:13:32Z</time>
      </trkpt>
      <trkpt lat="43.86148" lon="5.50962">
        <ele>497.39999389648</ele>
        <time>2021-12-03T09:13:46Z</time>
      </trkpt>
      <trkpt lat="43.86151" lon="5.50932">
        <ele>495.60000610352</ele>
        <time>2021-12-03T09:14:03Z</time>
      </trkpt>
      <trkpt lat="43.86153" lon="5.50931">
        <ele>495.20001220703</ele>
        <time>2021-12-03T09:14:09Z</time>
      </trkpt>
      <trkpt lat="43.86155" lon="5.50926">
        <ele>495.20001220703</ele>
        <time>2021-12-03T09:14:13Z</time>
      </trkpt>
      <trkpt lat="43.86159" lon="5.50917">
        <ele>495.20001220703</ele>
        <time>2021-12-03T09:14:22Z</time>
      </trkpt>
      <trkpt lat="43.86162" lon="5.50908">
        <ele>495</ele>
        <time>2021-12-03T09:14:28Z</time>
      </trkpt>
      <trkpt lat="43.86163" lon="5.50906">
        <ele>494.79998779297</ele>
        <time>2021-12-03T09:14:31Z</time>
      </trkpt>
      <trkpt lat="43.86165" lon="5.50901">
        <ele>494.20001220703</ele>
        <time>2021-12-03T09:14:36Z</time>
      </trkpt>
      <trkpt lat="43.86174" lon="5.50888">
        <ele>491.60000610352</ele>
        <time>2021-12-03T09:14:51Z</time>
      </trkpt>
      <trkpt lat="43.86177" lon="5.50874">
        <ele>490.60000610352</ele>
        <time>2021-12-03T09:15:00Z</time>
      </trkpt>
      <trkpt lat="43.86186" lon="5.50855">
        <ele>489.60000610352</ele>
        <time>2021-12-03T09:15:16Z</time>
      </trkpt>
      <trkpt lat="43.86192" lon="5.50841">
        <ele>489.20001220703</ele>
        <time>2021-12-03T09:15:30Z</time>
      </trkpt>
      <trkpt lat="43.86193" lon="5.50836">
        <ele>489.20001220703</ele>
        <time>2021-12-03T09:15:35Z</time>
      </trkpt>
      <trkpt lat="43.86203" lon="5.50823">
        <ele>488.20001220703</ele>
        <time>2021-12-03T09:15:49Z</time>
      </trkpt>
      <trkpt lat="43.86213" lon="5.50811">
        <ele>488.60000610352</ele>
        <time>2021-12-03T09:16:04Z</time>
      </trkpt>
      <trkpt lat="43.86217" lon="5.50804">
        <ele>489.39999389648</ele>
        <time>2021-12-03T09:16:11Z</time>
      </trkpt>
      <trkpt lat="43.8622" lon="5.50792">
        <ele>490.20001220703</ele>
        <time>2021-12-03T09:16:20Z</time>
      </trkpt>
      <trkpt lat="43.8622" lon="5.50786">
        <ele>490.60000610352</ele>
        <time>2021-12-03T09:16:37Z</time>
      </trkpt>
      <trkpt lat="43.86222" lon="5.50779">
        <ele>490.60000610352</ele>
        <time>2021-12-03T09:16:44Z</time>
      </trkpt>
      <trkpt lat="43.86229" lon="5.50764">
        <ele>490.79998779297</ele>
        <time>2021-12-03T09:17:05Z</time>
      </trkpt>
      <trkpt lat="43.86228" lon="5.50765">
        <ele>490.60000610352</ele>
        <time>2021-12-03T09:17:40Z</time>
      </trkpt>
      <trkpt lat="43.86229" lon="5.5076">
        <ele>490.60000610352</ele>
        <time>2021-12-03T09:18:20Z</time>
      </trkpt>
      <trkpt lat="43.8623" lon="5.50756">
        <ele>490.60000610352</ele>
        <time>2021-12-03T09:18:23Z</time>
      </trkpt>
      <trkpt lat="43.8624" lon="5.50735">
        <ele>490.60000610352</ele>
        <time>2021-12-03T09:18:40Z</time>
      </trkpt>
      <trkpt lat="43.86244" lon="5.50727">
        <ele>490</ele>
        <time>2021-12-03T09:18:46Z</time>
      </trkpt>
      <trkpt lat="43.86247" lon="5.50721">
        <ele>489.79998779297</ele>
        <time>2021-12-03T09:18:51Z</time>
      </trkpt>
      <trkpt lat="43.86249" lon="5.50717">
        <ele>489.60000610352</ele>
        <time>2021-12-03T09:18:55Z</time>
      </trkpt>
      <trkpt lat="43.86251" lon="5.50702">
        <ele>489.39999389648</ele>
        <time>2021-12-03T09:19:04Z</time>
      </trkpt>
      <trkpt lat="43.8626" lon="5.50683">
        <ele>489.39999389648</ele>
        <time>2021-12-03T09:19:21Z</time>
      </trkpt>
      <trkpt lat="43.86262" lon="5.50675">
        <ele>489.60000610352</ele>
        <time>2021-12-03T09:19:27Z</time>
      </trkpt>
      <trkpt lat="43.8627" lon="5.50652">
        <ele>489.39999389648</ele>
        <time>2021-12-03T09:19:45Z</time>
      </trkpt>
      <trkpt lat="43.86272" lon="5.50645">
        <ele>489</ele>
        <time>2021-12-03T09:19:54Z</time>
      </trkpt>
      <trkpt lat="43.86273" lon="5.50643">
        <ele>489</ele>
        <time>2021-12-03T09:19:56Z</time>
      </trkpt>
      <trkpt lat="43.86278" lon="5.50614">
        <ele>487.39999389648</ele>
        <time>2021-12-03T09:20:19Z</time>
      </trkpt>
      <trkpt lat="43.86278" lon="5.50613">
        <ele>487.39999389648</ele>
        <time>2021-12-03T09:20:20Z</time>
      </trkpt>
      <trkpt lat="43.86287" lon="5.50593">
        <ele>487</ele>
        <time>2021-12-03T09:20:32Z</time>
      </trkpt>
      <trkpt lat="43.86295" lon="5.50564">
        <ele>486</ele>
        <time>2021-12-03T09:20:50Z</time>
      </trkpt>
      <trkpt lat="43.86313" lon="5.50549">
        <ele>485.60000610352</ele>
        <time>2021-12-03T09:21:08Z</time>
      </trkpt>
      <trkpt lat="43.86323" lon="5.50538">
        <ele>483.60000610352</ele>
        <time>2021-12-03T09:21:21Z</time>
      </trkpt>
      <trkpt lat="43.86342" lon="5.50528">
        <ele>482</ele>
        <time>2021-12-03T09:21:40Z</time>
      </trkpt>
      <trkpt lat="43.86353" lon="5.50513">
        <ele>479.79998779297</ele>
        <time>2021-12-03T09:21:59Z</time>
      </trkpt>
      <trkpt lat="43.86364" lon="5.50499">
        <ele>476.60000610352</ele>
        <time>2021-12-03T09:22:14Z</time>
      </trkpt>
      <trkpt lat="43.86378" lon="5.50483">
        <ele>474.60000610352</ele>
        <time>2021-12-03T09:22:37Z</time>
      </trkpt>
      <trkpt lat="43.86394" lon="5.50477">
        <ele>473.20001220703</ele>
        <time>2021-12-03T09:22:57Z</time>
      </trkpt>
      <trkpt lat="43.86414" lon="5.50472">
        <ele>471</ele>
        <time>2021-12-03T09:23:19Z</time>
      </trkpt>
      <trkpt lat="43.8643" lon="5.50471">
        <ele>468.20001220703</ele>
        <time>2021-12-03T09:23:41Z</time>
      </trkpt>
      <trkpt lat="43.86428" lon="5.50458">
        <ele>466.39999389648</ele>
        <time>2021-12-03T09:23:57Z</time>
      </trkpt>
      <trkpt lat="43.86426" lon="5.50441">
        <ele>466.20001220703</ele>
        <time>2021-12-03T09:24:15Z</time>
      </trkpt>
      <trkpt lat="43.86432" lon="5.50422">
        <ele>466.60000610352</ele>
        <time>2021-12-03T09:24:31Z</time>
      </trkpt>
      <trkpt lat="43.86433" lon="5.50419">
        <ele>466.60000610352</ele>
        <time>2021-12-03T09:24:33Z</time>
      </trkpt>
      <trkpt lat="43.86438" lon="5.50414">
        <ele>466.39999389648</ele>
        <time>2021-12-03T09:24:37Z</time>
      </trkpt>
      <trkpt lat="43.86447" lon="5.50392">
        <ele>466.20001220703</ele>
        <time>2021-12-03T09:24:55Z</time>
      </trkpt>
      <trkpt lat="43.86455" lon="5.50379">
        <ele>466.20001220703</ele>
        <time>2021-12-03T09:25:08Z</time>
      </trkpt>
      <trkpt lat="43.86443" lon="5.50374">
        <ele>467.39999389648</ele>
        <time>2021-12-03T09:25:32Z</time>
      </trkpt>
      <trkpt lat="43.8643" lon="5.50363">
        <ele>470.60000610352</ele>
        <time>2021-12-03T09:25:52Z</time>
      </trkpt>
      <trkpt lat="43.86421" lon="5.50355">
        <ele>473.60000610352</ele>
        <time>2021-12-03T09:26:09Z</time>
      </trkpt>
      <trkpt lat="43.8641" lon="5.5035">
        <ele>476.39999389648</ele>
        <time>2021-12-03T09:26:28Z</time>
      </trkpt>
      <trkpt lat="43.86395" lon="5.50344">
        <ele>479.60000610352</ele>
        <time>2021-12-03T09:26:50Z</time>
      </trkpt>
      <trkpt lat="43.86382" lon="5.50338">
        <ele>482.39999389648</ele>
        <time>2021-12-03T09:27:09Z</time>
      </trkpt>
      <trkpt lat="43.86367" lon="5.50328">
        <ele>485.60000610352</ele>
        <time>2021-12-03T09:27:33Z</time>
      </trkpt>
      <trkpt lat="43.86352" lon="5.50315">
        <ele>488.20001220703</ele>
        <time>2021-12-03T09:27:56Z</time>
      </trkpt>
      <trkpt lat="43.8634" lon="5.50298">
        <ele>490.60000610352</ele>
        <time>2021-12-03T09:28:18Z</time>
      </trkpt>
      <trkpt lat="43.86332" lon="5.5028">
        <ele>493</ele>
        <time>2021-12-03T09:28:39Z</time>
      </trkpt>
      <trkpt lat="43.86324" lon="5.50257">
        <ele>495.60000610352</ele>
        <time>2021-12-03T09:29:02Z</time>
      </trkpt>
      <trkpt lat="43.86315" lon="5.50244">
        <ele>495.79998779297</ele>
        <time>2021-12-03T09:29:19Z</time>
      </trkpt>
      <trkpt lat="43.86304" lon="5.50217">
        <ele>495.60000610352</ele>
        <time>2021-12-03T09:29:40Z</time>
      </trkpt>
      <trkpt lat="43.86297" lon="5.50194">
        <ele>494.79998779297</ele>
        <time>2021-12-03T09:29:59Z</time>
      </trkpt>
      <trkpt lat="43.86281" lon="5.50162">
        <ele>492.60000610352</ele>
        <time>2021-12-03T09:30:23Z</time>
      </trkpt>
      <trkpt lat="43.86276" lon="5.50139">
        <ele>489.39999389648</ele>
        <time>2021-12-03T09:30:41Z</time>
      </trkpt>
      <trkpt lat="43.86284" lon="5.50102">
        <ele>487.79998779297</ele>
        <time>2021-12-03T09:31:03Z</time>
      </trkpt>
      <trkpt lat="43.86293" lon="5.50076">
        <ele>486</ele>
        <time>2021-12-03T09:31:28Z</time>
      </trkpt>
      <trkpt lat="43.863" lon="5.50054">
        <ele>484.79998779297</ele>
        <time>2021-12-03T09:31:44Z</time>
      </trkpt>
      <trkpt lat="43.86295" lon="5.50046">
        <ele>484.60000610352</ele>
        <time>2021-12-03T09:32:00Z</time>
      </trkpt>
      <trkpt lat="43.86296" lon="5.50044">
        <ele>484.39999389648</ele>
        <time>2021-12-03T09:32:12Z</time>
      </trkpt>
      <trkpt lat="43.86299" lon="5.50051">
        <ele>484.20001220703</ele>
        <time>2021-12-03T09:32:40Z</time>
      </trkpt>
      <trkpt lat="43.86299" lon="5.50044">
        <ele>484</ele>
        <time>2021-12-03T09:32:50Z</time>
      </trkpt>
      <trkpt lat="43.86301" lon="5.50017">
        <ele>481.39999389648</ele>
        <time>2021-12-03T09:33:09Z</time>
      </trkpt>
      <trkpt lat="43.8631" lon="5.49987">
        <ele>479.60000610352</ele>
        <time>2021-12-03T09:33:31Z</time>
      </trkpt>
      <trkpt lat="43.8631" lon="5.49959">
        <ele>479.60000610352</ele>
        <time>2021-12-03T09:33:53Z</time>
      </trkpt>
      <trkpt lat="43.8631" lon="5.49913">
        <ele>479</ele>
        <time>2021-12-03T09:34:17Z</time>
      </trkpt>
      <trkpt lat="43.86308" lon="5.49882">
        <ele>478.20001220703</ele>
        <time>2021-12-03T09:34:41Z</time>
      </trkpt>
      <trkpt lat="43.863" lon="5.49842">
        <ele>478.20001220703</ele>
        <time>2021-12-03T09:35:06Z</time>
      </trkpt>
      <trkpt lat="43.86295" lon="5.4982">
        <ele>477.39999389648</ele>
        <time>2021-12-03T09:35:27Z</time>
      </trkpt>
      <trkpt lat="43.86291" lon="5.49814">
        <ele>476</ele>
        <time>2021-12-03T09:35:48Z</time>
      </trkpt>
      <trkpt lat="43.8629" lon="5.4981">
        <ele>475.39999389648</ele>
        <time>2021-12-03T09:36:16Z</time>
      </trkpt>
      <trkpt lat="43.86294" lon="5.498">
        <ele>476</ele>
        <time>2021-12-03T09:36:34Z</time>
      </trkpt>
      <trkpt lat="43.86299" lon="5.49764">
        <ele>476</ele>
        <time>2021-12-03T09:37:00Z</time>
      </trkpt>
      <trkpt lat="43.86306" lon="5.49732">
        <ele>475.79998779297</ele>
        <time>2021-12-03T09:37:25Z</time>
      </trkpt>
      <trkpt lat="43.86315" lon="5.49699">
        <ele>475.79998779297</ele>
        <time>2021-12-03T09:37:51Z</time>
      </trkpt>
      <trkpt lat="43.86316" lon="5.49668">
        <ele>474.20001220703</ele>
        <time>2021-12-03T09:38:16Z</time>
      </trkpt>
      <trkpt lat="43.86318" lon="5.49647">
        <ele>471.20001220703</ele>
        <time>2021-12-03T09:38:30Z</time>
      </trkpt>
      <trkpt lat="43.86319" lon="5.49629">
        <ele>469.79998779297</ele>
        <time>2021-12-03T09:38:42Z</time>
      </trkpt>
      <trkpt lat="43.86322" lon="5.49605">
        <ele>468.79998779297</ele>
        <time>2021-12-03T09:39:07Z</time>
      </trkpt>
      <trkpt lat="43.8632" lon="5.49604">
        <ele>469.79998779297</ele>
        <time>2021-12-03T09:39:34Z</time>
      </trkpt>
      <trkpt lat="43.86321" lon="5.49604">
        <ele>469.79998779297</ele>
        <time>2021-12-03T09:39:37Z</time>
      </trkpt>
      <trkpt lat="43.86324" lon="5.49605">
        <ele>469.60000610352</ele>
        <time>2021-12-03T09:40:10Z</time>
      </trkpt>
      <trkpt lat="43.86324" lon="5.49602">
        <ele>469.20001220703</ele>
        <time>2021-12-03T09:40:52Z</time>
      </trkpt>
      <trkpt lat="43.86321" lon="5.496">
        <ele>469.20001220703</ele>
        <time>2021-12-03T09:40:59Z</time>
      </trkpt>
      <trkpt lat="43.86319" lon="5.49603">
        <ele>469.20001220703</ele>
        <time>2021-12-03T09:41:15Z</time>
      </trkpt>
      <trkpt lat="43.86311" lon="5.49589">
        <ele>469.20001220703</ele>
        <time>2021-12-03T09:41:37Z</time>
      </trkpt>
      <trkpt lat="43.86297" lon="5.49565">
        <ele>469</ele>
        <time>2021-12-03T09:42:03Z</time>
      </trkpt>
      <trkpt lat="43.86274" lon="5.49549">
        <ele>468.60000610352</ele>
        <time>2021-12-03T09:42:25Z</time>
      </trkpt>
      <trkpt lat="43.8627" lon="5.49543">
        <ele>468.39999389648</ele>
        <time>2021-12-03T09:42:31Z</time>
      </trkpt>
      <trkpt lat="43.86257" lon="5.49537">
        <ele>468</ele>
        <time>2021-12-03T09:42:48Z</time>
      </trkpt>
      <trkpt lat="43.86238" lon="5.4952">
        <ele>466.60000610352</ele>
        <time>2021-12-03T09:43:16Z</time>
      </trkpt>
      <trkpt lat="43.86234" lon="5.49488">
        <ele>464.60000610352</ele>
        <time>2021-12-03T09:43:41Z</time>
      </trkpt>
      <trkpt lat="43.86222" lon="5.49475">
        <ele>463.79998779297</ele>
        <time>2021-12-03T09:43:52Z</time>
      </trkpt>
      <trkpt lat="43.86208" lon="5.49468">
        <ele>460.60000610352</ele>
        <time>2021-12-03T09:44:11Z</time>
      </trkpt>
      <trkpt lat="43.86208" lon="5.49466">
        <ele>460</ele>
        <time>2021-12-03T09:44:37Z</time>
      </trkpt>
      <trkpt lat="43.86208" lon="5.49461">
        <ele>460</ele>
        <time>2021-12-03T09:45:07Z</time>
      </trkpt>
      <trkpt lat="43.86208" lon="5.49464">
        <ele>459.60000610352</ele>
        <time>2021-12-03T09:45:53Z</time>
      </trkpt>
      <trkpt lat="43.86195" lon="5.49458">
        <ele>459</ele>
        <time>2021-12-03T09:46:43Z</time>
      </trkpt>
      <trkpt lat="43.86178" lon="5.49454">
        <ele>456.39999389648</ele>
        <time>2021-12-03T09:47:00Z</time>
      </trkpt>
      <trkpt lat="43.86169" lon="5.49448">
        <ele>455.60000610352</ele>
        <time>2021-12-03T09:47:07Z</time>
      </trkpt>
      <trkpt lat="43.86166" lon="5.49444">
        <ele>455.20001220703</ele>
        <time>2021-12-03T09:47:11Z</time>
      </trkpt>
      <trkpt lat="43.86159" lon="5.49439">
        <ele>454.60000610352</ele>
        <time>2021-12-03T09:47:16Z</time>
      </trkpt>
      <trkpt lat="43.86153" lon="5.49434">
        <ele>453.79998779297</ele>
        <time>2021-12-03T09:47:22Z</time>
      </trkpt>
      <trkpt lat="43.86152" lon="5.49432">
        <ele>453.39999389648</ele>
        <time>2021-12-03T09:47:24Z</time>
      </trkpt>
      <trkpt lat="43.86153" lon="5.49426">
        <ele>452.79998779297</ele>
        <time>2021-12-03T09:47:29Z</time>
      </trkpt>
      <trkpt lat="43.86153" lon="5.49421">
        <ele>452.20001220703</ele>
        <time>2021-12-03T09:47:33Z</time>
      </trkpt>
      <trkpt lat="43.86152" lon="5.49412">
        <ele>451.39999389648</ele>
        <time>2021-12-03T09:47:38Z</time>
      </trkpt>
      <trkpt lat="43.86152" lon="5.49395">
        <ele>450.39999389648</ele>
        <time>2021-12-03T09:47:47Z</time>
      </trkpt>
      <trkpt lat="43.86146" lon="5.49379">
        <ele>448.60000610352</ele>
        <time>2021-12-03T09:47:58Z</time>
      </trkpt>
      <trkpt lat="43.86145" lon="5.49375">
        <ele>447.79998779297</ele>
        <time>2021-12-03T09:48:01Z</time>
      </trkpt>
      <trkpt lat="43.86135" lon="5.49367">
        <ele>446.39999389648</ele>
        <time>2021-12-03T09:48:11Z</time>
      </trkpt>
      <trkpt lat="43.8613" lon="5.49365">
        <ele>445.79998779297</ele>
        <time>2021-12-03T09:48:15Z</time>
      </trkpt>
      <trkpt lat="43.86126" lon="5.49362">
        <ele>444.79998779297</ele>
        <time>2021-12-03T09:48:20Z</time>
      </trkpt>
      <trkpt lat="43.86122" lon="5.49358">
        <ele>444.39999389648</ele>
        <time>2021-12-03T09:48:23Z</time>
      </trkpt>
      <trkpt lat="43.86119" lon="5.49356">
        <ele>444.20001220703</ele>
        <time>2021-12-03T09:48:27Z</time>
      </trkpt>
      <trkpt lat="43.86118" lon="5.49355">
        <ele>444.20001220703</ele>
        <time>2021-12-03T09:48:29Z</time>
      </trkpt>
      <trkpt lat="43.86106" lon="5.4935">
        <ele>442.60000610352</ele>
        <time>2021-12-03T09:48:42Z</time>
      </trkpt>
      <trkpt lat="43.86093" lon="5.49344">
        <ele>439.20001220703</ele>
        <time>2021-12-03T09:49:01Z</time>
      </trkpt>
      <trkpt lat="43.86087" lon="5.49345">
        <ele>436.20001220703</ele>
        <time>2021-12-03T09:49:16Z</time>
      </trkpt>
      <trkpt lat="43.86076" lon="5.49344">
        <ele>433.20001220703</ele>
        <time>2021-12-03T09:49:34Z</time>
      </trkpt>
      <trkpt lat="43.86073" lon="5.49338">
        <ele>432</ele>
        <time>2021-12-03T09:49:45Z</time>
      </trkpt>
      <trkpt lat="43.86077" lon="5.49327">
        <ele>431.20001220703</ele>
        <time>2021-12-03T09:49:51Z</time>
      </trkpt>
      <trkpt lat="43.86079" lon="5.4932">
        <ele>430</ele>
        <time>2021-12-03T09:50:04Z</time>
      </trkpt>
      <trkpt lat="43.8608" lon="5.49317">
        <ele>430</ele>
        <time>2021-12-03T09:50:06Z</time>
      </trkpt>
      <trkpt lat="43.86093" lon="5.49297">
        <ele>429.20001220703</ele>
        <time>2021-12-03T09:50:23Z</time>
      </trkpt>
      <trkpt lat="43.861" lon="5.49295">
        <ele>429</ele>
        <time>2021-12-03T09:50:29Z</time>
      </trkpt>
      <trkpt lat="43.86106" lon="5.49275">
        <ele>428.79998779297</ele>
        <time>2021-12-03T09:50:44Z</time>
      </trkpt>
      <trkpt lat="43.86105" lon="5.49271">
        <ele>428.60000610352</ele>
        <time>2021-12-03T09:50:47Z</time>
      </trkpt>
      <trkpt lat="43.86101" lon="5.49268">
        <ele>428.60000610352</ele>
        <time>2021-12-03T09:51:01Z</time>
      </trkpt>
      <trkpt lat="43.86082" lon="5.49271">
        <ele>428.79998779297</ele>
        <time>2021-12-03T09:51:20Z</time>
      </trkpt>
      <trkpt lat="43.86066" lon="5.49261">
        <ele>428.39999389648</ele>
        <time>2021-12-03T09:51:34Z</time>
      </trkpt>
      <trkpt lat="43.8606" lon="5.49253">
        <ele>428.20001220703</ele>
        <time>2021-12-03T09:51:41Z</time>
      </trkpt>
      <trkpt lat="43.86052" lon="5.49237">
        <ele>428.20001220703</ele>
        <time>2021-12-03T09:51:55Z</time>
      </trkpt>
      <trkpt lat="43.86051" lon="5.49234">
        <ele>428</ele>
        <time>2021-12-03T09:51:57Z</time>
      </trkpt>
      <trkpt lat="43.86048" lon="5.49226">
        <ele>427.79998779297</ele>
        <time>2021-12-03T09:52:01Z</time>
      </trkpt>
      <trkpt lat="43.86038" lon="5.49184">
        <ele>427.79998779297</ele>
        <time>2021-12-03T09:52:23Z</time>
      </trkpt>
      <trkpt lat="43.86033" lon="5.49153">
        <ele>427.60000610352</ele>
        <time>2021-12-03T09:52:40Z</time>
      </trkpt>
      <trkpt lat="43.86034" lon="5.49121">
        <ele>428</ele>
        <time>2021-12-03T09:53:01Z</time>
      </trkpt>
      <trkpt lat="43.86037" lon="5.49085">
        <ele>427.79998779297</ele>
        <time>2021-12-03T09:53:21Z</time>
      </trkpt>
      <trkpt lat="43.86038" lon="5.49078">
        <ele>427.60000610352</ele>
        <time>2021-12-03T09:53:25Z</time>
      </trkpt>
      <trkpt lat="43.86037" lon="5.49048">
        <ele>427.60000610352</ele>
        <time>2021-12-03T09:53:40Z</time>
      </trkpt>
      <trkpt lat="43.8604" lon="5.49019">
        <ele>427.20001220703</ele>
        <time>2021-12-03T09:53:56Z</time>
      </trkpt>
      <trkpt lat="43.86044" lon="5.4901">
        <ele>427</ele>
        <time>2021-12-03T09:54:03Z</time>
      </trkpt>
      <trkpt lat="43.86049" lon="5.48993">
        <ele>427.39999389648</ele>
        <time>2021-12-03T09:54:17Z</time>
      </trkpt>
      <trkpt lat="43.86057" lon="5.49">
        <ele>429.39999389648</ele>
        <time>2021-12-03T09:54:29Z</time>
      </trkpt>
      <trkpt lat="43.86069" lon="5.48995">
        <ele>432.20001220703</ele>
        <time>2021-12-03T09:54:46Z</time>
      </trkpt>
      <trkpt lat="43.86079" lon="5.48998">
        <ele>434.39999389648</ele>
        <time>2021-12-03T09:54:59Z</time>
      </trkpt>
      <trkpt lat="43.86096" lon="5.48994">
        <ele>437.60000610352</ele>
        <time>2021-12-03T09:55:19Z</time>
      </trkpt>
      <trkpt lat="43.86112" lon="5.48997">
        <ele>440.60000610352</ele>
        <time>2021-12-03T09:55:38Z</time>
      </trkpt>
      <trkpt lat="43.86115" lon="5.48998">
        <ele>440.79998779297</ele>
        <time>2021-12-03T09:55:40Z</time>
      </trkpt>
      <trkpt lat="43.86123" lon="5.49015">
        <ele>443.20001220703</ele>
        <time>2021-12-03T09:55:57Z</time>
      </trkpt>
      <trkpt lat="43.86122" lon="5.49026">
        <ele>444</ele>
        <time>2021-12-03T09:56:04Z</time>
      </trkpt>
      <trkpt lat="43.86118" lon="5.49066">
        <ele>445.39999389648</ele>
        <time>2021-12-03T09:56:22Z</time>
      </trkpt>
      <trkpt lat="43.86119" lon="5.49082">
        <ele>445.39999389648</ele>
        <time>2021-12-03T09:56:33Z</time>
      </trkpt>
      <trkpt lat="43.86121" lon="5.49098">
        <ele>446.39999389648</ele>
        <time>2021-12-03T09:56:47Z</time>
      </trkpt>
      <trkpt lat="43.86121" lon="5.49101">
        <ele>446.60000610352</ele>
        <time>2021-12-03T09:56:49Z</time>
      </trkpt>
      <trkpt lat="43.86121" lon="5.49102">
        <ele>446.60000610352</ele>
        <time>2021-12-03T09:56:50Z</time>
      </trkpt>
      <trkpt lat="43.8612" lon="5.49109">
        <ele>446.79998779297</ele>
        <time>2021-12-03T09:56:53Z</time>
      </trkpt>
      <trkpt lat="43.8612" lon="5.49126">
        <ele>449.79998779297</ele>
        <time>2021-12-03T09:57:07Z</time>
      </trkpt>
      <trkpt lat="43.86132" lon="5.49139">
        <ele>451.79998779297</ele>
        <time>2021-12-03T09:57:21Z</time>
      </trkpt>
      <trkpt lat="43.86133" lon="5.49139">
        <ele>452</ele>
        <time>2021-12-03T09:57:22Z</time>
      </trkpt>
      <trkpt lat="43.8615" lon="5.49142">
        <ele>454</ele>
        <time>2021-12-03T09:57:37Z</time>
      </trkpt>
      <trkpt lat="43.86162" lon="5.49157">
        <ele>454.39999389648</ele>
        <time>2021-12-03T09:57:49Z</time>
      </trkpt>
      <trkpt lat="43.86179" lon="5.49164">
        <ele>454.39999389648</ele>
        <time>2021-12-03T09:58:03Z</time>
      </trkpt>
      <trkpt lat="43.86194" lon="5.49161">
        <ele>454.60000610352</ele>
        <time>2021-12-03T09:58:17Z</time>
      </trkpt>
      <trkpt lat="43.86206" lon="5.49151">
        <ele>455</ele>
        <time>2021-12-03T09:58:30Z</time>
      </trkpt>
      <trkpt lat="43.86207" lon="5.4915">
        <ele>455</ele>
        <time>2021-12-03T09:58:31Z</time>
      </trkpt>
      <trkpt lat="43.86223" lon="5.49137">
        <ele>457</ele>
        <time>2021-12-03T09:58:49Z</time>
      </trkpt>
      <trkpt lat="43.86224" lon="5.49136">
        <ele>457</ele>
        <time>2021-12-03T09:58:50Z</time>
      </trkpt>
      <trkpt lat="43.86227" lon="5.4912">
        <ele>459.20001220703</ele>
        <time>2021-12-03T09:59:04Z</time>
      </trkpt>
      <trkpt lat="43.86226" lon="5.49108">
        <ele>460.60000610352</ele>
        <time>2021-12-03T09:59:13Z</time>
      </trkpt>
      <trkpt lat="43.86226" lon="5.49104">
        <ele>460.79998779297</ele>
        <time>2021-12-03T09:59:15Z</time>
      </trkpt>
      <trkpt lat="43.86224" lon="5.4909">
        <ele>461.60000610352</ele>
        <time>2021-12-03T09:59:27Z</time>
      </trkpt>
      <trkpt lat="43.86228" lon="5.49068">
        <ele>462.79998779297</ele>
        <time>2021-12-03T09:59:43Z</time>
      </trkpt>
      <trkpt lat="43.86232" lon="5.49056">
        <ele>463.20001220703</ele>
        <time>2021-12-03T09:59:53Z</time>
      </trkpt>
      <trkpt lat="43.86236" lon="5.49051">
        <ele>464.39999389648</ele>
        <time>2021-12-03T10:00:04Z</time>
      </trkpt>
      <trkpt lat="43.8624" lon="5.49055">
        <ele>465.20001220703</ele>
        <time>2021-12-03T10:00:09Z</time>
      </trkpt>
      <trkpt lat="43.86245" lon="5.49057">
        <ele>466</ele>
        <time>2021-12-03T10:00:17Z</time>
      </trkpt>
      <trkpt lat="43.86245" lon="5.49054">
        <ele>466.39999389648</ele>
        <time>2021-12-03T10:00:20Z</time>
      </trkpt>
      <trkpt lat="43.86261" lon="5.49066">
        <ele>469.79998779297</ele>
        <time>2021-12-03T10:00:41Z</time>
      </trkpt>
      <trkpt lat="43.86273" lon="5.49076">
        <ele>473</ele>
        <time>2021-12-03T10:00:58Z</time>
      </trkpt>
      <trkpt lat="43.8628" lon="5.49091">
        <ele>476.20001220703</ele>
        <time>2021-12-03T10:01:14Z</time>
      </trkpt>
      <trkpt lat="43.86291" lon="5.49112">
        <ele>478.79998779297</ele>
        <time>2021-12-03T10:01:35Z</time>
      </trkpt>
      <trkpt lat="43.86302" lon="5.49126">
        <ele>481.39999389648</ele>
        <time>2021-12-03T10:01:55Z</time>
      </trkpt>
      <trkpt lat="43.86322" lon="5.49126">
        <ele>484.20001220703</ele>
        <time>2021-12-03T10:02:20Z</time>
      </trkpt>
      <trkpt lat="43.8633" lon="5.49119">
        <ele>485.79998779297</ele>
        <time>2021-12-03T10:02:33Z</time>
      </trkpt>
      <trkpt lat="43.86342" lon="5.49109">
        <ele>488.20001220703</ele>
        <time>2021-12-03T10:02:50Z</time>
      </trkpt>
      <trkpt lat="43.86348" lon="5.49103">
        <ele>489.60000610352</ele>
        <time>2021-12-03T10:02:58Z</time>
      </trkpt>
      <trkpt lat="43.8636" lon="5.49092">
        <ele>492</ele>
        <time>2021-12-03T10:03:15Z</time>
      </trkpt>
      <trkpt lat="43.86365" lon="5.49093">
        <ele>494</ele>
        <time>2021-12-03T10:03:31Z</time>
      </trkpt>
      <trkpt lat="43.86376" lon="5.49089">
        <ele>495.60000610352</ele>
        <time>2021-12-03T10:03:49Z</time>
      </trkpt>
      <trkpt lat="43.86389" lon="5.49094">
        <ele>498.79998779297</ele>
        <time>2021-12-03T10:04:11Z</time>
      </trkpt>
      <trkpt lat="43.864" lon="5.49122">
        <ele>500.79998779297</ele>
        <time>2021-12-03T10:04:33Z</time>
      </trkpt>
      <trkpt lat="43.86406" lon="5.4914">
        <ele>500.79998779297</ele>
        <time>2021-12-03T10:04:44Z</time>
      </trkpt>
      <trkpt lat="43.86409" lon="5.49148">
        <ele>500.39999389648</ele>
        <time>2021-12-03T10:04:50Z</time>
      </trkpt>
      <trkpt lat="43.86417" lon="5.49158">
        <ele>499.79998779297</ele>
        <time>2021-12-03T10:04:58Z</time>
      </trkpt>
      <trkpt lat="43.86428" lon="5.49169">
        <ele>499.20001220703</ele>
        <time>2021-12-03T10:05:11Z</time>
      </trkpt>
      <trkpt lat="43.86431" lon="5.49192">
        <ele>497.79998779297</ele>
        <time>2021-12-03T10:05:29Z</time>
      </trkpt>
      <trkpt lat="43.86432" lon="5.492">
        <ele>496.79998779297</ele>
        <time>2021-12-03T10:05:33Z</time>
      </trkpt>
      <trkpt lat="43.86447" lon="5.49216">
        <ele>494.60000610352</ele>
        <time>2021-12-03T10:05:50Z</time>
      </trkpt>
      <trkpt lat="43.86457" lon="5.49226">
        <ele>494.39999389648</ele>
        <time>2021-12-03T10:06:04Z</time>
      </trkpt>
      <trkpt lat="43.86472" lon="5.49238">
        <ele>494.60000610352</ele>
        <time>2021-12-03T10:06:25Z</time>
      </trkpt>
      <trkpt lat="43.8649" lon="5.49243">
        <ele>495.60000610352</ele>
        <time>2021-12-03T10:06:45Z</time>
      </trkpt>
      <trkpt lat="43.86496" lon="5.49242">
        <ele>496.60000610352</ele>
        <time>2021-12-03T10:06:51Z</time>
      </trkpt>
      <trkpt lat="43.86508" lon="5.49245">
        <ele>498</ele>
        <time>2021-12-03T10:07:09Z</time>
      </trkpt>
      <trkpt lat="43.86516" lon="5.49255">
        <ele>497.79998779297</ele>
        <time>2021-12-03T10:07:17Z</time>
      </trkpt>
      <trkpt lat="43.86513" lon="5.49287">
        <ele>496.79998779297</ele>
        <time>2021-12-03T10:07:43Z</time>
      </trkpt>
      <trkpt lat="43.86521" lon="5.49307">
        <ele>499</ele>
        <time>2021-12-03T10:08:05Z</time>
      </trkpt>
      <trkpt lat="43.86529" lon="5.4932">
        <ele>502</ele>
        <time>2021-12-03T10:08:22Z</time>
      </trkpt>
      <trkpt lat="43.8652" lon="5.4933">
        <ele>505.20001220703</ele>
        <time>2021-12-03T10:08:41Z</time>
      </trkpt>
      <trkpt lat="43.86514" lon="5.49331">
        <ele>505.79998779297</ele>
        <time>2021-12-03T10:08:46Z</time>
      </trkpt>
      <trkpt lat="43.865" lon="5.49335">
        <ele>505.20001220703</ele>
        <time>2021-12-03T10:09:02Z</time>
      </trkpt>
      <trkpt lat="43.86496" lon="5.49336">
        <ele>505</ele>
        <time>2021-12-03T10:09:05Z</time>
      </trkpt>
      <trkpt lat="43.86479" lon="5.49352">
        <ele>505.20001220703</ele>
        <time>2021-12-03T10:09:22Z</time>
      </trkpt>
      <trkpt lat="43.86462" lon="5.49361">
        <ele>506.39999389648</ele>
        <time>2021-12-03T10:09:43Z</time>
      </trkpt>
      <trkpt lat="43.86456" lon="5.49381">
        <ele>507.60000610352</ele>
        <time>2021-12-03T10:10:03Z</time>
      </trkpt>
      <trkpt lat="43.86457" lon="5.49385">
        <ele>508.39999389648</ele>
        <time>2021-12-03T10:10:06Z</time>
      </trkpt>
      <trkpt lat="43.86469" lon="5.49402">
        <ele>511.39999389648</ele>
        <time>2021-12-03T10:10:24Z</time>
      </trkpt>
      <trkpt lat="43.8648" lon="5.4942">
        <ele>512.20001220703</ele>
        <time>2021-12-03T10:10:42Z</time>
      </trkpt>
      <trkpt lat="43.86484" lon="5.49417">
        <ele>512.40002441406</ele>
        <time>2021-12-03T10:10:47Z</time>
      </trkpt>
      <trkpt lat="43.86498" lon="5.49406">
        <ele>514.40002441406</ele>
        <time>2021-12-03T10:11:06Z</time>
      </trkpt>
      <trkpt lat="43.86514" lon="5.49415">
        <ele>516.59997558594</ele>
        <time>2021-12-03T10:11:27Z</time>
      </trkpt>
      <trkpt lat="43.86531" lon="5.49428">
        <ele>519.79998779297</ele>
        <time>2021-12-03T10:11:50Z</time>
      </trkpt>
      <trkpt lat="43.86543" lon="5.49433">
        <ele>523</ele>
        <time>2021-12-03T10:12:06Z</time>
      </trkpt>
      <trkpt lat="43.86556" lon="5.49436">
        <ele>523.59997558594</ele>
        <time>2021-12-03T10:12:25Z</time>
      </trkpt>
      <trkpt lat="43.86564" lon="5.49443">
        <ele>524.79998779297</ele>
        <time>2021-12-03T10:12:32Z</time>
      </trkpt>
      <trkpt lat="43.86588" lon="5.49442">
        <ele>527.59997558594</ele>
        <time>2021-12-03T10:12:57Z</time>
      </trkpt>
      <trkpt lat="43.86601" lon="5.49444">
        <ele>525</ele>
        <time>2021-12-03T10:13:08Z</time>
      </trkpt>
      <trkpt lat="43.86625" lon="5.49441">
        <ele>524.20001220703</ele>
        <time>2021-12-03T10:13:28Z</time>
      </trkpt>
      <trkpt lat="43.86627" lon="5.49444">
        <ele>524.79998779297</ele>
        <time>2021-12-03T10:13:44Z</time>
      </trkpt>
      <trkpt lat="43.86629" lon="5.49443">
        <ele>525.40002441406</ele>
        <time>2021-12-03T10:14:13Z</time>
      </trkpt>
      <trkpt lat="43.86628" lon="5.49438">
        <ele>525.40002441406</ele>
        <time>2021-12-03T10:14:25Z</time>
      </trkpt>
      <trkpt lat="43.86631" lon="5.49438">
        <ele>525.20001220703</ele>
        <time>2021-12-03T10:14:30Z</time>
      </trkpt>
      <trkpt lat="43.8665" lon="5.49446">
        <ele>525.59997558594</ele>
        <time>2021-12-03T10:14:49Z</time>
      </trkpt>
      <trkpt lat="43.86673" lon="5.49459">
        <ele>528.20001220703</ele>
        <time>2021-12-03T10:15:11Z</time>
      </trkpt>
      <trkpt lat="43.86696" lon="5.4946">
        <ele>530</ele>
        <time>2021-12-03T10:15:28Z</time>
      </trkpt>
      <trkpt lat="43.86719" lon="5.49457">
        <ele>530.59997558594</ele>
        <time>2021-12-03T10:15:45Z</time>
      </trkpt>
      <trkpt lat="43.86734" lon="5.49458">
        <ele>531.79998779297</ele>
        <time>2021-12-03T10:15:58Z</time>
      </trkpt>
      <trkpt lat="43.86737" lon="5.49461">
        <ele>532.40002441406</ele>
        <time>2021-12-03T10:16:02Z</time>
      </trkpt>
      <trkpt lat="43.8674" lon="5.49466">
        <ele>533.20001220703</ele>
        <time>2021-12-03T10:16:06Z</time>
      </trkpt>
      <trkpt lat="43.86752" lon="5.49479">
        <ele>534</ele>
        <time>2021-12-03T10:16:22Z</time>
      </trkpt>
      <trkpt lat="43.86752" lon="5.4948">
        <ele>534</ele>
        <time>2021-12-03T10:16:23Z</time>
      </trkpt>
      <trkpt lat="43.86755" lon="5.49484">
        <ele>534.20001220703</ele>
        <time>2021-12-03T10:16:27Z</time>
      </trkpt>
      <trkpt lat="43.86763" lon="5.49496">
        <ele>534.20001220703</ele>
        <time>2021-12-03T10:16:37Z</time>
      </trkpt>
      <trkpt lat="43.86766" lon="5.49519">
        <ele>533.59997558594</ele>
        <time>2021-12-03T10:16:54Z</time>
      </trkpt>
      <trkpt lat="43.86764" lon="5.49524">
        <ele>533.40002441406</ele>
        <time>2021-12-03T10:17:00Z</time>
      </trkpt>
      <trkpt lat="43.86756" lon="5.4954">
        <ele>532.40002441406</ele>
        <time>2021-12-03T10:17:12Z</time>
      </trkpt>
      <trkpt lat="43.86754" lon="5.49546">
        <ele>532.20001220703</ele>
        <time>2021-12-03T10:17:16Z</time>
      </trkpt>
      <trkpt lat="43.86753" lon="5.4957">
        <ele>531.40002441406</ele>
        <time>2021-12-03T10:17:30Z</time>
      </trkpt>
      <trkpt lat="43.86758" lon="5.4958">
        <ele>530</ele>
        <time>2021-12-03T10:17:48Z</time>
      </trkpt>
      <trkpt lat="43.86759" lon="5.49581">
        <ele>530</ele>
        <time>2021-12-03T10:17:55Z</time>
      </trkpt>
      <trkpt lat="43.86763" lon="5.49586">
        <ele>530</ele>
        <time>2021-12-03T10:18:00Z</time>
      </trkpt>
      <trkpt lat="43.86765" lon="5.49587">
        <ele>530</ele>
        <time>2021-12-03T10:18:02Z</time>
      </trkpt>
      <trkpt lat="43.86776" lon="5.49607">
        <ele>528.59997558594</ele>
        <time>2021-12-03T10:18:19Z</time>
      </trkpt>
      <trkpt lat="43.86783" lon="5.49618">
        <ele>528.20001220703</ele>
        <time>2021-12-03T10:18:28Z</time>
      </trkpt>
      <trkpt lat="43.86801" lon="5.49634">
        <ele>527.79998779297</ele>
        <time>2021-12-03T10:18:45Z</time>
      </trkpt>
      <trkpt lat="43.86804" lon="5.49634">
        <ele>527.79998779297</ele>
        <time>2021-12-03T10:18:48Z</time>
      </trkpt>
      <trkpt lat="43.86807" lon="5.49635">
        <ele>527.79998779297</ele>
        <time>2021-12-03T10:18:51Z</time>
      </trkpt>
      <trkpt lat="43.86813" lon="5.49638">
        <ele>527.59997558594</ele>
        <time>2021-12-03T10:18:57Z</time>
      </trkpt>
      <trkpt lat="43.86816" lon="5.49638">
        <ele>527.59997558594</ele>
        <time>2021-12-03T10:19:00Z</time>
      </trkpt>
      <trkpt lat="43.86819" lon="5.49642">
        <ele>527.59997558594</ele>
        <time>2021-12-03T10:19:04Z</time>
      </trkpt>
      <trkpt lat="43.8684" lon="5.4966">
        <ele>527.79998779297</ele>
        <time>2021-12-03T10:19:22Z</time>
      </trkpt>
      <trkpt lat="43.8685" lon="5.49671">
        <ele>527.79998779297</ele>
        <time>2021-12-03T10:19:33Z</time>
      </trkpt>
      <trkpt lat="43.86854" lon="5.49675">
        <ele>527.79998779297</ele>
        <time>2021-12-03T10:19:37Z</time>
      </trkpt>
      <trkpt lat="43.86868" lon="5.49685">
        <ele>528</ele>
        <time>2021-12-03T10:19:53Z</time>
      </trkpt>
      <trkpt lat="43.8687" lon="5.49686">
        <ele>528</ele>
        <time>2021-12-03T10:19:55Z</time>
      </trkpt>
      <trkpt lat="43.86878" lon="5.49683">
        <ele>528</ele>
        <time>2021-12-03T10:20:02Z</time>
      </trkpt>
      <trkpt lat="43.86894" lon="5.49666">
        <ele>528.79998779297</ele>
        <time>2021-12-03T10:20:20Z</time>
      </trkpt>
      <trkpt lat="43.86907" lon="5.49653">
        <ele>529</ele>
        <time>2021-12-03T10:20:34Z</time>
      </trkpt>
      <trkpt lat="43.86923" lon="5.49634">
        <ele>528.79998779297</ele>
        <time>2021-12-03T10:20:50Z</time>
      </trkpt>
      <trkpt lat="43.86946" lon="5.49606">
        <ele>528.40002441406</ele>
        <time>2021-12-03T10:21:15Z</time>
      </trkpt>
      <trkpt lat="43.86964" lon="5.49585">
        <ele>528.20001220703</ele>
        <time>2021-12-03T10:21:33Z</time>
      </trkpt>
      <trkpt lat="43.86976" lon="5.49559">
        <ele>527.59997558594</ele>
        <time>2021-12-03T10:21:51Z</time>
      </trkpt>
      <trkpt lat="43.86991" lon="5.49532">
        <ele>527.40002441406</ele>
        <time>2021-12-03T10:22:11Z</time>
      </trkpt>
      <trkpt lat="43.87012" lon="5.49492">
        <ele>526.40002441406</ele>
        <time>2021-12-03T10:22:39Z</time>
      </trkpt>
      <trkpt lat="43.87026" lon="5.49459">
        <ele>526</ele>
        <time>2021-12-03T10:23:02Z</time>
      </trkpt>
      <trkpt lat="43.87047" lon="5.49429">
        <ele>525.59997558594</ele>
        <time>2021-12-03T10:23:26Z</time>
      </trkpt>
      <trkpt lat="43.87059" lon="5.49413">
        <ele>525.20001220703</ele>
        <time>2021-12-03T10:23:41Z</time>
      </trkpt>
      <trkpt lat="43.87071" lon="5.49402">
        <ele>524.59997558594</ele>
        <time>2021-12-03T10:23:53Z</time>
      </trkpt>
      <trkpt lat="43.87072" lon="5.49399">
        <ele>524.59997558594</ele>
        <time>2021-12-03T10:23:55Z</time>
      </trkpt>
      <trkpt lat="43.87089" lon="5.49384">
        <ele>523.59997558594</ele>
        <time>2021-12-03T10:24:10Z</time>
      </trkpt>
      <trkpt lat="43.87105" lon="5.49372">
        <ele>522.40002441406</ele>
        <time>2021-12-03T10:24:27Z</time>
      </trkpt>
      <trkpt lat="43.87119" lon="5.49362">
        <ele>521.79998779297</ele>
        <time>2021-12-03T10:24:40Z</time>
      </trkpt>
      <trkpt lat="43.87133" lon="5.49348">
        <ele>520.40002441406</ele>
        <time>2021-12-03T10:24:55Z</time>
      </trkpt>
      <trkpt lat="43.87135" lon="5.49345">
        <ele>519.79998779297</ele>
        <time>2021-12-03T10:25:00Z</time>
      </trkpt>
      <trkpt lat="43.87139" lon="5.4933">
        <ele>518.59997558594</ele>
        <time>2021-12-03T10:25:12Z</time>
      </trkpt>
      <trkpt lat="43.87147" lon="5.49306">
        <ele>516.20001220703</ele>
        <time>2021-12-03T10:25:30Z</time>
      </trkpt>
      <trkpt lat="43.87152" lon="5.493">
        <ele>515.59997558594</ele>
        <time>2021-12-03T10:25:36Z</time>
      </trkpt>
      <trkpt lat="43.87167" lon="5.49295">
        <ele>514.79998779297</ele>
        <time>2021-12-03T10:25:50Z</time>
      </trkpt>
      <trkpt lat="43.87176" lon="5.49295">
        <ele>514.20001220703</ele>
        <time>2021-12-03T10:26:00Z</time>
      </trkpt>
      <trkpt lat="43.87196" lon="5.49283">
        <ele>513.20001220703</ele>
        <time>2021-12-03T10:26:16Z</time>
      </trkpt>
      <trkpt lat="43.87211" lon="5.49279">
        <ele>512.59997558594</ele>
        <time>2021-12-03T10:26:29Z</time>
      </trkpt>
      <trkpt lat="43.87231" lon="5.49276">
        <ele>510.79998779297</ele>
        <time>2021-12-03T10:26:46Z</time>
      </trkpt>
      <trkpt lat="43.87233" lon="5.49277">
        <ele>510.60000610352</ele>
        <time>2021-12-03T10:26:48Z</time>
      </trkpt>
      <trkpt lat="43.87245" lon="5.49285">
        <ele>509.60000610352</ele>
        <time>2021-12-03T10:26:59Z</time>
      </trkpt>
      <trkpt lat="43.87259" lon="5.49286">
        <ele>507.60000610352</ele>
        <time>2021-12-03T10:27:14Z</time>
      </trkpt>
      <trkpt lat="43.87261" lon="5.49285">
        <ele>507.60000610352</ele>
        <time>2021-12-03T10:27:16Z</time>
      </trkpt>
      <trkpt lat="43.87266" lon="5.49282">
        <ele>507.39999389648</ele>
        <time>2021-12-03T10:27:21Z</time>
      </trkpt>
      <trkpt lat="43.87274" lon="5.49278">
        <ele>506.79998779297</ele>
        <time>2021-12-03T10:27:28Z</time>
      </trkpt>
      <trkpt lat="43.87288" lon="5.4927">
        <ele>505.79998779297</ele>
        <time>2021-12-03T10:27:42Z</time>
      </trkpt>
      <trkpt lat="43.87301" lon="5.49261">
        <ele>505.39999389648</ele>
        <time>2021-12-03T10:27:53Z</time>
      </trkpt>
      <trkpt lat="43.87323" lon="5.49258">
        <ele>504.79998779297</ele>
        <time>2021-12-03T10:28:10Z</time>
      </trkpt>
      <trkpt lat="43.87335" lon="5.49256">
        <ele>504.60000610352</ele>
        <time>2021-12-03T10:28:25Z</time>
      </trkpt>
      <trkpt lat="43.87354" lon="5.49259">
        <ele>503.20001220703</ele>
        <time>2021-12-03T10:28:41Z</time>
      </trkpt>
      <trkpt lat="43.87357" lon="5.49259">
        <ele>502.79998779297</ele>
        <time>2021-12-03T10:28:44Z</time>
      </trkpt>
      <trkpt lat="43.8737" lon="5.49253">
        <ele>501.20001220703</ele>
        <time>2021-12-03T10:28:59Z</time>
      </trkpt>
      <trkpt lat="43.87381" lon="5.49248">
        <ele>500.39999389648</ele>
        <time>2021-12-03T10:29:08Z</time>
      </trkpt>
      <trkpt lat="43.87396" lon="5.49234">
        <ele>499.60000610352</ele>
        <time>2021-12-03T10:29:22Z</time>
      </trkpt>
      <trkpt lat="43.87409" lon="5.49225">
        <ele>498.60000610352</ele>
        <time>2021-12-03T10:29:37Z</time>
      </trkpt>
      <trkpt lat="43.8742" lon="5.49215">
        <ele>497.79998779297</ele>
        <time>2021-12-03T10:29:46Z</time>
      </trkpt>
      <trkpt lat="43.87425" lon="5.492">
        <ele>497.39999389648</ele>
        <time>2021-12-03T10:29:55Z</time>
      </trkpt>
      <trkpt lat="43.87437" lon="5.4917">
        <ele>496.20001220703</ele>
        <time>2021-12-03T10:30:13Z</time>
      </trkpt>
      <trkpt lat="43.87437" lon="5.4916">
        <ele>495.79998779297</ele>
        <time>2021-12-03T10:30:20Z</time>
      </trkpt>
      <trkpt lat="43.87444" lon="5.49147">
        <ele>494.79998779297</ele>
        <time>2021-12-03T10:30:32Z</time>
      </trkpt>
      <trkpt lat="43.87442" lon="5.49135">
        <ele>494.20001220703</ele>
        <time>2021-12-03T10:30:38Z</time>
      </trkpt>
      <trkpt lat="43.87441" lon="5.49126">
        <ele>493.60000610352</ele>
        <time>2021-12-03T10:30:44Z</time>
      </trkpt>
      <trkpt lat="43.87439" lon="5.49093">
        <ele>491.60000610352</ele>
        <time>2021-12-03T10:31:02Z</time>
      </trkpt>
      <trkpt lat="43.87435" lon="5.49069">
        <ele>491.20001220703</ele>
        <time>2021-12-03T10:31:17Z</time>
      </trkpt>
      <trkpt lat="43.87437" lon="5.49047">
        <ele>492.20001220703</ele>
        <time>2021-12-03T10:31:33Z</time>
      </trkpt>
      <trkpt lat="43.87441" lon="5.49019">
        <ele>494</ele>
        <time>2021-12-03T10:31:51Z</time>
      </trkpt>
      <trkpt lat="43.8745" lon="5.49">
        <ele>494.60000610352</ele>
        <time>2021-12-03T10:32:05Z</time>
      </trkpt>
      <trkpt lat="43.87454" lon="5.48976">
        <ele>495.60000610352</ele>
        <time>2021-12-03T10:32:22Z</time>
      </trkpt>
      <trkpt lat="43.87459" lon="5.48962">
        <ele>497.20001220703</ele>
        <time>2021-12-03T10:32:39Z</time>
      </trkpt>
      <trkpt lat="43.87468" lon="5.48951">
        <ele>498</ele>
        <time>2021-12-03T10:32:57Z</time>
      </trkpt>
      <trkpt lat="43.87476" lon="5.48926">
        <ele>498.20001220703</ele>
        <time>2021-12-03T10:33:14Z</time>
      </trkpt>
      <trkpt lat="43.87484" lon="5.48908">
        <ele>499</ele>
        <time>2021-12-03T10:33:30Z</time>
      </trkpt>
      <trkpt lat="43.87486" lon="5.48899">
        <ele>499.20001220703</ele>
        <time>2021-12-03T10:33:35Z</time>
      </trkpt>
      <trkpt lat="43.8749" lon="5.48885">
        <ele>499.60000610352</ele>
        <time>2021-12-03T10:33:42Z</time>
      </trkpt>
      <trkpt lat="43.87498" lon="5.48866">
        <ele>499.60000610352</ele>
        <time>2021-12-03T10:33:56Z</time>
      </trkpt>
      <trkpt lat="43.87506" lon="5.48847">
        <ele>498.79998779297</ele>
        <time>2021-12-03T10:34:11Z</time>
      </trkpt>
      <trkpt lat="43.87506" lon="5.48845">
        <ele>498.60000610352</ele>
        <time>2021-12-03T10:34:12Z</time>
      </trkpt>
      <trkpt lat="43.87516" lon="5.48825">
        <ele>497.20001220703</ele>
        <time>2021-12-03T10:34:26Z</time>
      </trkpt>
      <trkpt lat="43.87523" lon="5.48814">
        <ele>496</ele>
        <time>2021-12-03T10:34:35Z</time>
      </trkpt>
      <trkpt lat="43.87526" lon="5.48811">
        <ele>495.79998779297</ele>
        <time>2021-12-03T10:34:38Z</time>
      </trkpt>
      <trkpt lat="43.87527" lon="5.48787">
        <ele>495.79998779297</ele>
        <time>2021-12-03T10:34:51Z</time>
      </trkpt>
      <trkpt lat="43.87527" lon="5.48786">
        <ele>496</ele>
        <time>2021-12-03T10:34:52Z</time>
      </trkpt>
      <trkpt lat="43.87527" lon="5.48767">
        <ele>497</ele>
        <time>2021-12-03T10:35:06Z</time>
      </trkpt>
      <trkpt lat="43.8753" lon="5.48746">
        <ele>499</ele>
        <time>2021-12-03T10:35:20Z</time>
      </trkpt>
      <trkpt lat="43.87532" lon="5.48735">
        <ele>499.79998779297</ele>
        <time>2021-12-03T10:35:28Z</time>
      </trkpt>
      <trkpt lat="43.87535" lon="5.48719">
        <ele>500.79998779297</ele>
        <time>2021-12-03T10:35:39Z</time>
      </trkpt>
      <trkpt lat="43.87539" lon="5.48689">
        <ele>502.60000610352</ele>
        <time>2021-12-03T10:35:57Z</time>
      </trkpt>
      <trkpt lat="43.87537" lon="5.4867">
        <ele>504.39999389648</ele>
        <time>2021-12-03T10:36:11Z</time>
      </trkpt>
      <trkpt lat="43.87536" lon="5.48659">
        <ele>505.60000610352</ele>
        <time>2021-12-03T10:36:18Z</time>
      </trkpt>
      <trkpt lat="43.87534" lon="5.4865">
        <ele>506.60000610352</ele>
        <time>2021-12-03T10:36:25Z</time>
      </trkpt>
      <trkpt lat="43.87533" lon="5.4864">
        <ele>507.60000610352</ele>
        <time>2021-12-03T10:36:32Z</time>
      </trkpt>
      <trkpt lat="43.87532" lon="5.48631">
        <ele>508</ele>
        <time>2021-12-03T10:36:39Z</time>
      </trkpt>
      <trkpt lat="43.87532" lon="5.48623">
        <ele>508.39999389648</ele>
        <time>2021-12-03T10:36:44Z</time>
      </trkpt>
      <trkpt lat="43.87529" lon="5.48595">
        <ele>508.79998779297</ele>
        <time>2021-12-03T10:37:02Z</time>
      </trkpt>
      <trkpt lat="43.87524" lon="5.4858">
        <ele>508.39999389648</ele>
        <time>2021-12-03T10:37:11Z</time>
      </trkpt>
      <trkpt lat="43.87524" lon="5.48576">
        <ele>508.20001220703</ele>
        <time>2021-12-03T10:37:14Z</time>
      </trkpt>
      <trkpt lat="43.87522" lon="5.48565">
        <ele>507.79998779297</ele>
        <time>2021-12-03T10:37:21Z</time>
      </trkpt>
      <trkpt lat="43.87521" lon="5.48557">
        <ele>507.20001220703</ele>
        <time>2021-12-03T10:37:26Z</time>
      </trkpt>
      <trkpt lat="43.87519" lon="5.48552">
        <ele>507</ele>
        <time>2021-12-03T10:37:29Z</time>
      </trkpt>
      <trkpt lat="43.87517" lon="5.48541">
        <ele>506</ele>
        <time>2021-12-03T10:37:41Z</time>
      </trkpt>
      <trkpt lat="43.87511" lon="5.48522">
        <ele>505.60000610352</ele>
        <time>2021-12-03T10:38:02Z</time>
      </trkpt>
      <trkpt lat="43.87503" lon="5.48496">
        <ele>503.39999389648</ele>
        <time>2021-12-03T10:38:23Z</time>
      </trkpt>
      <trkpt lat="43.87508" lon="5.48483">
        <ele>501.39999389648</ele>
        <time>2021-12-03T10:38:36Z</time>
      </trkpt>
      <trkpt lat="43.87518" lon="5.48466">
        <ele>498.60000610352</ele>
        <time>2021-12-03T10:38:52Z</time>
      </trkpt>
      <trkpt lat="43.8753" lon="5.48452">
        <ele>496.39999389648</ele>
        <time>2021-12-03T10:39:06Z</time>
      </trkpt>
      <trkpt lat="43.87531" lon="5.48452">
        <ele>496.39999389648</ele>
        <time>2021-12-03T10:39:07Z</time>
      </trkpt>
      <trkpt lat="43.87533" lon="5.48451">
        <ele>496.20001220703</ele>
        <time>2021-12-03T10:39:08Z</time>
      </trkpt>
      <trkpt lat="43.87534" lon="5.48451">
        <ele>496.20001220703</ele>
        <time>2021-12-03T10:39:09Z</time>
      </trkpt>
      <trkpt lat="43.87547" lon="5.48441">
        <ele>493.79998779297</ele>
        <time>2021-12-03T10:39:25Z</time>
      </trkpt>
      <trkpt lat="43.87573" lon="5.48429">
        <ele>490.79998779297</ele>
        <time>2021-12-03T10:39:48Z</time>
      </trkpt>
      <trkpt lat="43.87581" lon="5.48411">
        <ele>488.60000610352</ele>
        <time>2021-12-03T10:40:01Z</time>
      </trkpt>
      <trkpt lat="43.87585" lon="5.48397">
        <ele>486.60000610352</ele>
        <time>2021-12-03T10:40:14Z</time>
      </trkpt>
      <trkpt lat="43.87586" lon="5.48395">
        <ele>486.60000610352</ele>
        <time>2021-12-03T10:40:15Z</time>
      </trkpt>
      <trkpt lat="43.87587" lon="5.48394">
        <ele>486.39999389648</ele>
        <time>2021-12-03T10:40:16Z</time>
      </trkpt>
      <trkpt lat="43.87588" lon="5.48392">
        <ele>486.39999389648</ele>
        <time>2021-12-03T10:40:17Z</time>
      </trkpt>
      <trkpt lat="43.87589" lon="5.48391">
        <ele>486.20001220703</ele>
        <time>2021-12-03T10:40:18Z</time>
      </trkpt>
      <trkpt lat="43.87589" lon="5.4839">
        <ele>486.20001220703</ele>
        <time>2021-12-03T10:40:19Z</time>
      </trkpt>
      <trkpt lat="43.8759" lon="5.48388">
        <ele>486.20001220703</ele>
        <time>2021-12-03T10:40:20Z</time>
      </trkpt>
      <trkpt lat="43.87591" lon="5.48386">
        <ele>486</ele>
        <time>2021-12-03T10:40:21Z</time>
      </trkpt>
      <trkpt lat="43.87592" lon="5.48384">
        <ele>486</ele>
        <time>2021-12-03T10:40:22Z</time>
      </trkpt>
      <trkpt lat="43.87592" lon="5.48382">
        <ele>486</ele>
        <time>2021-12-03T10:40:23Z</time>
      </trkpt>
      <trkpt lat="43.87594" lon="5.48379">
        <ele>485.79998779297</ele>
        <time>2021-12-03T10:40:25Z</time>
      </trkpt>
      <trkpt lat="43.87595" lon="5.48378">
        <ele>485.60000610352</ele>
        <time>2021-12-03T10:40:26Z</time>
      </trkpt>
      <trkpt lat="43.87596" lon="5.48376">
        <ele>485.60000610352</ele>
        <time>2021-12-03T10:40:27Z</time>
      </trkpt>
      <trkpt lat="43.87596" lon="5.48375">
        <ele>485.39999389648</ele>
        <time>2021-12-03T10:40:28Z</time>
      </trkpt>
      <trkpt lat="43.87597" lon="5.48373">
        <ele>485.39999389648</ele>
        <time>2021-12-03T10:40:29Z</time>
      </trkpt>
      <trkpt lat="43.87598" lon="5.48372">
        <ele>485.39999389648</ele>
        <time>2021-12-03T10:40:30Z</time>
      </trkpt>
      <trkpt lat="43.87608" lon="5.48359">
        <ele>485</ele>
        <time>2021-12-03T10:40:41Z</time>
      </trkpt>
      <trkpt lat="43.8761" lon="5.48358">
        <ele>485</ele>
        <time>2021-12-03T10:40:42Z</time>
      </trkpt>
      <trkpt lat="43.87622" lon="5.48346">
        <ele>484.60000610352</ele>
        <time>2021-12-03T10:40:55Z</time>
      </trkpt>
      <trkpt lat="43.87632" lon="5.48324">
        <ele>483.20001220703</ele>
        <time>2021-12-03T10:41:10Z</time>
      </trkpt>
      <trkpt lat="43.87638" lon="5.48321">
        <ele>482.39999389648</ele>
        <time>2021-12-03T10:41:18Z</time>
      </trkpt>
      <trkpt lat="43.87651" lon="5.48319">
        <ele>481.79998779297</ele>
        <time>2021-12-03T10:41:27Z</time>
      </trkpt>
      <trkpt lat="43.87653" lon="5.48319">
        <ele>481.79998779297</ele>
        <time>2021-12-03T10:41:28Z</time>
      </trkpt>
      <trkpt lat="43.87665" lon="5.48319">
        <ele>482.39999389648</ele>
        <time>2021-12-03T10:41:42Z</time>
      </trkpt>
      <trkpt lat="43.8768" lon="5.48324">
        <ele>482.79998779297</ele>
        <time>2021-12-03T10:41:54Z</time>
      </trkpt>
      <trkpt lat="43.877" lon="5.48333">
        <ele>483.20001220703</ele>
        <time>2021-12-03T10:42:12Z</time>
      </trkpt>
      <trkpt lat="43.87712" lon="5.48337">
        <ele>483.79998779297</ele>
        <time>2021-12-03T10:42:21Z</time>
      </trkpt>
      <trkpt lat="43.87713" lon="5.48337">
        <ele>483.79998779297</ele>
        <time>2021-12-03T10:42:22Z</time>
      </trkpt>
      <trkpt lat="43.87716" lon="5.48337">
        <ele>483.79998779297</ele>
        <time>2021-12-03T10:42:23Z</time>
      </trkpt>
      <trkpt lat="43.87739" lon="5.48339">
        <ele>486</ele>
        <time>2021-12-03T10:42:44Z</time>
      </trkpt>
      <trkpt lat="43.87771" lon="5.48343">
        <ele>486.20001220703</ele>
        <time>2021-12-03T10:43:12Z</time>
      </trkpt>
      <trkpt lat="43.87791" lon="5.48355">
        <ele>485.79998779297</ele>
        <time>2021-12-03T10:43:31Z</time>
      </trkpt>
      <trkpt lat="43.8781" lon="5.48371">
        <ele>484.60000610352</ele>
        <time>2021-12-03T10:43:52Z</time>
      </trkpt>
      <trkpt lat="43.87838" lon="5.48382">
        <ele>482.79998779297</ele>
        <time>2021-12-03T10:44:13Z</time>
      </trkpt>
      <trkpt lat="43.87866" lon="5.4842">
        <ele>480</ele>
        <time>2021-12-03T10:44:42Z</time>
      </trkpt>
      <trkpt lat="43.87892" lon="5.48433">
        <ele>478.79998779297</ele>
        <time>2021-12-03T10:45:06Z</time>
      </trkpt>
      <trkpt lat="43.87899" lon="5.48436">
        <ele>479.79998779297</ele>
        <time>2021-12-03T10:45:13Z</time>
      </trkpt>
      <trkpt lat="43.87916" lon="5.48435">
        <ele>483</ele>
        <time>2021-12-03T10:45:30Z</time>
      </trkpt>
      <trkpt lat="43.87931" lon="5.48432">
        <ele>485.79998779297</ele>
        <time>2021-12-03T10:45:48Z</time>
      </trkpt>
      <trkpt lat="43.87944" lon="5.48431">
        <ele>488.20001220703</ele>
        <time>2021-12-03T10:46:06Z</time>
      </trkpt>
      <trkpt lat="43.87958" lon="5.48427">
        <ele>490.39999389648</ele>
        <time>2021-12-03T10:46:25Z</time>
      </trkpt>
      <trkpt lat="43.87981" lon="5.48429">
        <ele>492.60000610352</ele>
        <time>2021-12-03T10:46:49Z</time>
      </trkpt>
      <trkpt lat="43.87997" lon="5.48427">
        <ele>495.79998779297</ele>
        <time>2021-12-03T10:47:10Z</time>
      </trkpt>
      <trkpt lat="43.88017" lon="5.48427">
        <ele>498.79998779297</ele>
        <time>2021-12-03T10:47:32Z</time>
      </trkpt>
      <trkpt lat="43.88032" lon="5.48428">
        <ele>502</ele>
        <time>2021-12-03T10:47:52Z</time>
      </trkpt>
      <trkpt lat="43.8805" lon="5.48433">
        <ele>505</ele>
        <time>2021-12-03T10:48:12Z</time>
      </trkpt>
      <trkpt lat="43.88073" lon="5.48442">
        <ele>507.60000610352</ele>
        <time>2021-12-03T10:48:38Z</time>
      </trkpt>
      <trkpt lat="43.88089" lon="5.48443">
        <ele>508.79998779297</ele>
        <time>2021-12-03T10:48:59Z</time>
      </trkpt>
      <trkpt lat="43.88087" lon="5.48439">
        <ele>509.20001220703</ele>
        <time>2021-12-03T10:49:40Z</time>
      </trkpt>
      <trkpt lat="43.88084" lon="5.48442">
        <ele>509.20001220703</ele>
        <time>2021-12-03T10:50:08Z</time>
      </trkpt>
      <trkpt lat="43.88084" lon="5.48442">
        <ele>509.20001220703</ele>
        <time>2021-12-03T10:50:36Z</time>
      </trkpt>
      <trkpt lat="43.88086" lon="5.48439">
        <ele>509.39999389648</ele>
        <time>2021-12-03T10:50:57Z</time>
      </trkpt>
      <trkpt lat="43.88091" lon="5.48444">
        <ele>509.60000610352</ele>
        <time>2021-12-03T10:51:09Z</time>
      </trkpt>
      <trkpt lat="43.88093" lon="5.48447">
        <ele>509.60000610352</ele>
        <time>2021-12-03T10:51:11Z</time>
      </trkpt>
      <trkpt lat="43.88104" lon="5.48454">
        <ele>510</ele>
        <time>2021-12-03T10:51:23Z</time>
      </trkpt>
      <trkpt lat="43.88106" lon="5.48455">
        <ele>510</ele>
        <time>2021-12-03T10:51:25Z</time>
      </trkpt>
      <trkpt lat="43.88126" lon="5.48451">
        <ele>512.20001220703</ele>
        <time>2021-12-03T10:51:48Z</time>
      </trkpt>
      <trkpt lat="43.8815" lon="5.48457">
        <ele>515.20001220703</ele>
        <time>2021-12-03T10:52:07Z</time>
      </trkpt>
      <trkpt lat="43.88164" lon="5.48455">
        <ele>518.20001220703</ele>
        <time>2021-12-03T10:52:21Z</time>
      </trkpt>
      <trkpt lat="43.88177" lon="5.48454">
        <ele>521.40002441406</ele>
        <time>2021-12-03T10:52:37Z</time>
      </trkpt>
      <trkpt lat="43.88192" lon="5.48456">
        <ele>524.59997558594</ele>
        <time>2021-12-03T10:52:53Z</time>
      </trkpt>
      <trkpt lat="43.88218" lon="5.48461">
        <ele>527.40002441406</ele>
        <time>2021-12-03T10:53:19Z</time>
      </trkpt>
      <trkpt lat="43.88242" lon="5.48457">
        <ele>529.59997558594</ele>
        <time>2021-12-03T10:53:40Z</time>
      </trkpt>
      <trkpt lat="43.88268" lon="5.48453">
        <ele>531.20001220703</ele>
        <time>2021-12-03T10:54:04Z</time>
      </trkpt>
      <trkpt lat="43.88294" lon="5.48458">
        <ele>533.79998779297</ele>
        <time>2021-12-03T10:54:30Z</time>
      </trkpt>
      <trkpt lat="43.88317" lon="5.48463">
        <ele>535.59997558594</ele>
        <time>2021-12-03T10:54:54Z</time>
      </trkpt>
      <trkpt lat="43.88338" lon="5.48469">
        <ele>536.20001220703</ele>
        <time>2021-12-03T10:55:10Z</time>
      </trkpt>
      <trkpt lat="43.88357" lon="5.48474">
        <ele>536.40002441406</ele>
        <time>2021-12-03T10:55:22Z</time>
      </trkpt>
      <trkpt lat="43.88365" lon="5.48478">
        <ele>536.59997558594</ele>
        <time>2021-12-03T10:55:31Z</time>
      </trkpt>
      <trkpt lat="43.88379" lon="5.48494">
        <ele>536.79998779297</ele>
        <time>2021-12-03T10:55:46Z</time>
      </trkpt>
      <trkpt lat="43.88391" lon="5.48513">
        <ele>536.59997558594</ele>
        <time>2021-12-03T10:56:04Z</time>
      </trkpt>
      <trkpt lat="43.88407" lon="5.48534">
        <ele>536.40002441406</ele>
        <time>2021-12-03T10:56:26Z</time>
      </trkpt>
      <trkpt lat="43.88427" lon="5.48539">
        <ele>538.79998779297</ele>
        <time>2021-12-03T10:56:48Z</time>
      </trkpt>
      <trkpt lat="43.88453" lon="5.48542">
        <ele>542</ele>
        <time>2021-12-03T10:57:11Z</time>
      </trkpt>
      <trkpt lat="43.88454" lon="5.48542">
        <ele>542</ele>
        <time>2021-12-03T10:57:12Z</time>
      </trkpt>
      <trkpt lat="43.88476" lon="5.48542">
        <ele>542.40002441406</ele>
        <time>2021-12-03T10:57:29Z</time>
      </trkpt>
      <trkpt lat="43.88492" lon="5.4854">
        <ele>543</ele>
        <time>2021-12-03T10:57:44Z</time>
      </trkpt>
      <trkpt lat="43.88502" lon="5.48538">
        <ele>543.20001220703</ele>
        <time>2021-12-03T10:58:00Z</time>
      </trkpt>
      <trkpt lat="43.88511" lon="5.48532">
        <ele>543.20001220703</ele>
        <time>2021-12-03T10:58:13Z</time>
      </trkpt>
      <trkpt lat="43.88519" lon="5.48504">
        <ele>541.59997558594</ele>
        <time>2021-12-03T10:58:32Z</time>
      </trkpt>
      <trkpt lat="43.88529" lon="5.48477">
        <ele>539.20001220703</ele>
        <time>2021-12-03T10:58:49Z</time>
      </trkpt>
      <trkpt lat="43.88532" lon="5.48468">
        <ele>538.20001220703</ele>
        <time>2021-12-03T10:58:54Z</time>
      </trkpt>
      <trkpt lat="43.88543" lon="5.48443">
        <ele>536.20001220703</ele>
        <time>2021-12-03T10:59:13Z</time>
      </trkpt>
      <trkpt lat="43.88546" lon="5.48438">
        <ele>536</ele>
        <time>2021-12-03T10:59:17Z</time>
      </trkpt>
      <trkpt lat="43.88553" lon="5.484">
        <ele>535</ele>
        <time>2021-12-03T10:59:38Z</time>
      </trkpt>
      <trkpt lat="43.88568" lon="5.48381">
        <ele>534.59997558594</ele>
        <time>2021-12-03T10:59:58Z</time>
      </trkpt>
      <trkpt lat="43.88573" lon="5.48378">
        <ele>535.59997558594</ele>
        <time>2021-12-03T11:00:14Z</time>
      </trkpt>
      <trkpt lat="43.88574" lon="5.48373">
        <ele>535.79998779297</ele>
        <time>2021-12-03T11:00:19Z</time>
      </trkpt>
      <trkpt lat="43.88577" lon="5.48363">
        <ele>535.40002441406</ele>
        <time>2021-12-03T11:00:35Z</time>
      </trkpt>
      <trkpt lat="43.88578" lon="5.48364">
        <ele>534.79998779297</ele>
        <time>2021-12-03T11:01:19Z</time>
      </trkpt>
      <trkpt lat="43.88577" lon="5.48366">
        <ele>535</ele>
        <time>2021-12-03T11:02:39Z</time>
      </trkpt>
      <trkpt lat="43.88582" lon="5.48368">
        <ele>535.40002441406</ele>
        <time>2021-12-03T11:03:34Z</time>
      </trkpt>
      <trkpt lat="43.88581" lon="5.48366">
        <ele>534.79998779297</ele>
        <time>2021-12-03T11:05:16Z</time>
      </trkpt>
      <trkpt lat="43.88577" lon="5.48366">
        <ele>535.20001220703</ele>
        <time>2021-12-03T11:08:38Z</time>
      </trkpt>
      <trkpt lat="43.88579" lon="5.48366">
        <ele>534.79998779297</ele>
        <time>2021-12-03T11:09:40Z</time>
      </trkpt>
      <trkpt lat="43.88577" lon="5.48367">
        <ele>534.40002441406</ele>
        <time>2021-12-03T11:18:55Z</time>
      </trkpt>
      <trkpt lat="43.88579" lon="5.48366">
        <ele>534.20001220703</ele>
        <time>2021-12-03T11:21:55Z</time>
      </trkpt>
      <trkpt lat="43.88578" lon="5.48366">
        <ele>534.79998779297</ele>
        <time>2021-12-03T11:24:57Z</time>
      </trkpt>
      <trkpt lat="43.88576" lon="5.48367">
        <ele>534.79998779297</ele>
        <time>2021-12-03T11:27:08Z</time>
      </trkpt>
      <trkpt lat="43.88576" lon="5.48367">
        <ele>535.20001220703</ele>
        <time>2021-12-03T11:27:27Z</time>
      </trkpt>
      <trkpt lat="43.88576" lon="5.48372">
        <ele>535</ele>
        <time>2021-12-03T11:28:02Z</time>
      </trkpt>
      <trkpt lat="43.88584" lon="5.48385">
        <ele>535.79998779297</ele>
        <time>2021-12-03T11:28:19Z</time>
      </trkpt>
      <trkpt lat="43.88589" lon="5.48387">
        <ele>536</ele>
        <time>2021-12-03T11:28:25Z</time>
      </trkpt>
      <trkpt lat="43.88597" lon="5.48381">
        <ele>536.20001220703</ele>
        <time>2021-12-03T11:28:36Z</time>
      </trkpt>
      <trkpt lat="43.88606" lon="5.48387">
        <ele>536.59997558594</ele>
        <time>2021-12-03T11:28:44Z</time>
      </trkpt>
      <trkpt lat="43.8862" lon="5.48392">
        <ele>537.79998779297</ele>
        <time>2021-12-03T11:29:04Z</time>
      </trkpt>
      <trkpt lat="43.88626" lon="5.48397">
        <ele>538.20001220703</ele>
        <time>2021-12-03T11:29:25Z</time>
      </trkpt>
      <trkpt lat="43.88639" lon="5.4841">
        <ele>538.79998779297</ele>
        <time>2021-12-03T11:29:46Z</time>
      </trkpt>
      <trkpt lat="43.88641" lon="5.48414">
        <ele>539</ele>
        <time>2021-12-03T11:30:05Z</time>
      </trkpt>
      <trkpt lat="43.8864" lon="5.48413">
        <ele>539</ele>
        <time>2021-12-03T11:30:32Z</time>
      </trkpt>
      <trkpt lat="43.88646" lon="5.4842">
        <ele>538.79998779297</ele>
        <time>2021-12-03T11:30:49Z</time>
      </trkpt>
      <trkpt lat="43.88652" lon="5.48419">
        <ele>538.79998779297</ele>
        <time>2021-12-03T11:31:14Z</time>
      </trkpt>
      <trkpt lat="43.88647" lon="5.48421">
        <ele>539</ele>
        <time>2021-12-03T11:31:47Z</time>
      </trkpt>
      <trkpt lat="43.88651" lon="5.48425">
        <ele>539.20001220703</ele>
        <time>2021-12-03T11:31:55Z</time>
      </trkpt>
      <trkpt lat="43.88665" lon="5.48431">
        <ele>542.20001220703</ele>
        <time>2021-12-03T11:32:16Z</time>
      </trkpt>
      <trkpt lat="43.8867" lon="5.48431">
        <ele>542.20001220703</ele>
        <time>2021-12-03T11:32:30Z</time>
      </trkpt>
      <trkpt lat="43.88697" lon="5.48432">
        <ele>541.59997558594</ele>
        <time>2021-12-03T11:32:55Z</time>
      </trkpt>
      <trkpt lat="43.88699" lon="5.4843">
        <ele>542.20001220703</ele>
        <time>2021-12-03T11:33:22Z</time>
      </trkpt>
      <trkpt lat="43.88692" lon="5.48426">
        <ele>541.59997558594</ele>
        <time>2021-12-03T11:33:40Z</time>
      </trkpt>
      <trkpt lat="43.88698" lon="5.48426">
        <ele>540.59997558594</ele>
        <time>2021-12-03T11:33:58Z</time>
      </trkpt>
      <trkpt lat="43.88697" lon="5.48439">
        <ele>538.40002441406</ele>
        <time>2021-12-03T11:34:18Z</time>
      </trkpt>
      <trkpt lat="43.88695" lon="5.48458">
        <ele>540.20001220703</ele>
        <time>2021-12-03T11:34:36Z</time>
      </trkpt>
      <trkpt lat="43.88704" lon="5.48471">
        <ele>542.20001220703</ele>
        <time>2021-12-03T11:34:58Z</time>
      </trkpt>
      <trkpt lat="43.88713" lon="5.48479">
        <ele>542.20001220703</ele>
        <time>2021-12-03T11:35:20Z</time>
      </trkpt>
      <trkpt lat="43.88713" lon="5.48479">
        <ele>542.20001220703</ele>
        <time>2021-12-03T11:35:22Z</time>
      </trkpt>
      <trkpt lat="43.88701" lon="5.48475">
        <ele>542</ele>
        <time>2021-12-03T11:35:36Z</time>
      </trkpt>
      <trkpt lat="43.88686" lon="5.48466">
        <ele>541.79998779297</ele>
        <time>2021-12-03T11:36:04Z</time>
      </trkpt>
      <trkpt lat="43.88683" lon="5.48484">
        <ele>542.59997558594</ele>
        <time>2021-12-03T11:36:23Z</time>
      </trkpt>
      <trkpt lat="43.88682" lon="5.48504">
        <ele>542.79998779297</ele>
        <time>2021-12-03T11:36:47Z</time>
      </trkpt>
      <trkpt lat="43.88678" lon="5.48503">
        <ele>542.79998779297</ele>
        <time>2021-12-03T11:37:06Z</time>
      </trkpt>
      <trkpt lat="43.88678" lon="5.48502">
        <ele>542.79998779297</ele>
        <time>2021-12-03T11:37:21Z</time>
      </trkpt>
      <trkpt lat="43.88659" lon="5.48498">
        <ele>542.79998779297</ele>
        <time>2021-12-03T11:37:50Z</time>
      </trkpt>
      <trkpt lat="43.88645" lon="5.48512">
        <ele>542.59997558594</ele>
        <time>2021-12-03T11:38:05Z</time>
      </trkpt>
      <trkpt lat="43.88644" lon="5.48514">
        <ele>542.20001220703</ele>
        <time>2021-12-03T11:38:26Z</time>
      </trkpt>
      <trkpt lat="43.88649" lon="5.48522">
        <ele>543.40002441406</ele>
        <time>2021-12-03T11:38:49Z</time>
      </trkpt>
      <trkpt lat="43.8865" lon="5.48529">
        <ele>544</ele>
        <time>2021-12-03T11:39:06Z</time>
      </trkpt>
      <trkpt lat="43.88651" lon="5.48529">
        <ele>544.40002441406</ele>
        <time>2021-12-03T11:39:12Z</time>
      </trkpt>
      <trkpt lat="43.88642" lon="5.48537">
        <ele>544.20001220703</ele>
        <time>2021-12-03T11:39:34Z</time>
      </trkpt>
      <trkpt lat="43.88642" lon="5.48537">
        <ele>544.20001220703</ele>
        <time>2021-12-03T11:39:35Z</time>
      </trkpt>
      <trkpt lat="43.88634" lon="5.4855">
        <ele>545.20001220703</ele>
        <time>2021-12-03T11:39:56Z</time>
      </trkpt>
      <trkpt lat="43.88624" lon="5.48563">
        <ele>546.40002441406</ele>
        <time>2021-12-03T11:40:19Z</time>
      </trkpt>
      <trkpt lat="43.88612" lon="5.48572">
        <ele>547.59997558594</ele>
        <time>2021-12-03T11:40:39Z</time>
      </trkpt>
      <trkpt lat="43.88613" lon="5.48573">
        <ele>548</ele>
        <time>2021-12-03T11:41:11Z</time>
      </trkpt>
      <trkpt lat="43.88611" lon="5.48571">
        <ele>547.59997558594</ele>
        <time>2021-12-03T11:41:34Z</time>
      </trkpt>
      <trkpt lat="43.88618" lon="5.48566">
        <ele>548.20001220703</ele>
        <time>2021-12-03T11:41:48Z</time>
      </trkpt>
      <trkpt lat="43.8862" lon="5.48565">
        <ele>548.20001220703</ele>
        <time>2021-12-03T11:41:50Z</time>
      </trkpt>
      <trkpt lat="43.88632" lon="5.48563">
        <ele>547.40002441406</ele>
        <time>2021-12-03T11:42:05Z</time>
      </trkpt>
      <trkpt lat="43.8863" lon="5.48568">
        <ele>547</ele>
        <time>2021-12-03T11:42:09Z</time>
      </trkpt>
      <trkpt lat="43.88633" lon="5.48579">
        <ele>546.79998779297</ele>
        <time>2021-12-03T11:42:18Z</time>
      </trkpt>
      <trkpt lat="43.88642" lon="5.48596">
        <ele>548.20001220703</ele>
        <time>2021-12-03T11:42:32Z</time>
      </trkpt>
      <trkpt lat="43.88641" lon="5.48603">
        <ele>548.40002441406</ele>
        <time>2021-12-03T11:42:37Z</time>
      </trkpt>
      <trkpt lat="43.88643" lon="5.48616">
        <ele>549.20001220703</ele>
        <time>2021-12-03T11:42:49Z</time>
      </trkpt>
      <trkpt lat="43.88646" lon="5.48648">
        <ele>550.59997558594</ele>
        <time>2021-12-03T11:43:12Z</time>
      </trkpt>
      <trkpt lat="43.88631" lon="5.48682">
        <ele>552.20001220703</ele>
        <time>2021-12-03T11:43:32Z</time>
      </trkpt>
      <trkpt lat="43.8863" lon="5.48688">
        <ele>552.59997558594</ele>
        <time>2021-12-03T11:43:36Z</time>
      </trkpt>
      <trkpt lat="43.88625" lon="5.48709">
        <ele>553.20001220703</ele>
        <time>2021-12-03T11:43:47Z</time>
      </trkpt>
      <trkpt lat="43.88622" lon="5.48716">
        <ele>553.20001220703</ele>
        <time>2021-12-03T11:43:52Z</time>
      </trkpt>
      <trkpt lat="43.88617" lon="5.48746">
        <ele>553.79998779297</ele>
        <time>2021-12-03T11:44:09Z</time>
      </trkpt>
      <trkpt lat="43.88606" lon="5.48787">
        <ele>554.40002441406</ele>
        <time>2021-12-03T11:44:31Z</time>
      </trkpt>
      <trkpt lat="43.88601" lon="5.48819">
        <ele>555.20001220703</ele>
        <time>2021-12-03T11:44:49Z</time>
      </trkpt>
      <trkpt lat="43.88595" lon="5.48841">
        <ele>557</ele>
        <time>2021-12-03T11:45:05Z</time>
      </trkpt>
      <trkpt lat="43.88596" lon="5.48845">
        <ele>557.40002441406</ele>
        <time>2021-12-03T11:45:07Z</time>
      </trkpt>
      <trkpt lat="43.886" lon="5.48863">
        <ele>558.40002441406</ele>
        <time>2021-12-03T11:45:30Z</time>
      </trkpt>
      <trkpt lat="43.88602" lon="5.48866">
        <ele>558.20001220703</ele>
        <time>2021-12-03T11:46:23Z</time>
      </trkpt>
      <trkpt lat="43.88615" lon="5.48885">
        <ele>558.79998779297</ele>
        <time>2021-12-03T11:46:46Z</time>
      </trkpt>
      <trkpt lat="43.8862" lon="5.48895">
        <ele>559.59997558594</ele>
        <time>2021-12-03T11:47:05Z</time>
      </trkpt>
      <trkpt lat="43.88624" lon="5.48902">
        <ele>560</ele>
        <time>2021-12-03T11:47:12Z</time>
      </trkpt>
      <trkpt lat="43.88639" lon="5.48919">
        <ele>561</ele>
        <time>2021-12-03T11:47:29Z</time>
      </trkpt>
      <trkpt lat="43.88654" lon="5.48935">
        <ele>561.40002441406</ele>
        <time>2021-12-03T11:47:44Z</time>
      </trkpt>
      <trkpt lat="43.88662" lon="5.48949">
        <ele>561.59997558594</ele>
        <time>2021-12-03T11:47:55Z</time>
      </trkpt>
      <trkpt lat="43.88664" lon="5.4895">
        <ele>561.59997558594</ele>
        <time>2021-12-03T11:47:57Z</time>
      </trkpt>
      <trkpt lat="43.88674" lon="5.48972">
        <ele>561.59997558594</ele>
        <time>2021-12-03T11:48:13Z</time>
      </trkpt>
      <trkpt lat="43.88681" lon="5.48988">
        <ele>562</ele>
        <time>2021-12-03T11:48:27Z</time>
      </trkpt>
      <trkpt lat="43.88688" lon="5.49">
        <ele>562.59997558594</ele>
        <time>2021-12-03T11:48:41Z</time>
      </trkpt>
      <trkpt lat="43.88692" lon="5.49007">
        <ele>562.59997558594</ele>
        <time>2021-12-03T11:48:46Z</time>
      </trkpt>
      <trkpt lat="43.88702" lon="5.49025">
        <ele>563</ele>
        <time>2021-12-03T11:49:01Z</time>
      </trkpt>
      <trkpt lat="43.88703" lon="5.49027">
        <ele>563</ele>
        <time>2021-12-03T11:49:03Z</time>
      </trkpt>
      <trkpt lat="43.88718" lon="5.49049">
        <ele>563.79998779297</ele>
        <time>2021-12-03T11:49:21Z</time>
      </trkpt>
      <trkpt lat="43.88721" lon="5.49055">
        <ele>564.20001220703</ele>
        <time>2021-12-03T11:49:26Z</time>
      </trkpt>
      <trkpt lat="43.88743" lon="5.49075">
        <ele>565.20001220703</ele>
        <time>2021-12-03T11:49:48Z</time>
      </trkpt>
      <trkpt lat="43.88754" lon="5.49094">
        <ele>566.20001220703</ele>
        <time>2021-12-03T11:50:05Z</time>
      </trkpt>
      <trkpt lat="43.88761" lon="5.49109">
        <ele>567</ele>
        <time>2021-12-03T11:50:16Z</time>
      </trkpt>
      <trkpt lat="43.88754" lon="5.49129">
        <ele>567</ele>
        <time>2021-12-03T11:50:33Z</time>
      </trkpt>
      <trkpt lat="43.8873" lon="5.49142">
        <ele>565.79998779297</ele>
        <time>2021-12-03T11:50:54Z</time>
      </trkpt>
      <trkpt lat="43.88709" lon="5.49157">
        <ele>564</ele>
        <time>2021-12-03T11:51:12Z</time>
      </trkpt>
      <trkpt lat="43.88701" lon="5.49193">
        <ele>562.79998779297</ele>
        <time>2021-12-03T11:51:34Z</time>
      </trkpt>
      <trkpt lat="43.887" lon="5.49208">
        <ele>562.40002441406</ele>
        <time>2021-12-03T11:51:44Z</time>
      </trkpt>
      <trkpt lat="43.88705" lon="5.49226">
        <ele>562.59997558594</ele>
        <time>2021-12-03T11:51:54Z</time>
      </trkpt>
      <trkpt lat="43.88714" lon="5.4926">
        <ele>562.40002441406</ele>
        <time>2021-12-03T11:52:14Z</time>
      </trkpt>
      <trkpt lat="43.88716" lon="5.49276">
        <ele>562.20001220703</ele>
        <time>2021-12-03T11:52:25Z</time>
      </trkpt>
      <trkpt lat="43.88711" lon="5.49284">
        <ele>562.20001220703</ele>
        <time>2021-12-03T11:52:31Z</time>
      </trkpt>
      <trkpt lat="43.887" lon="5.49297">
        <ele>561.20001220703</ele>
        <time>2021-12-03T11:52:45Z</time>
      </trkpt>
      <trkpt lat="43.88685" lon="5.49313">
        <ele>559.79998779297</ele>
        <time>2021-12-03T11:53:01Z</time>
      </trkpt>
      <trkpt lat="43.88684" lon="5.49314">
        <ele>559.79998779297</ele>
        <time>2021-12-03T11:53:02Z</time>
      </trkpt>
      <trkpt lat="43.88669" lon="5.4933">
        <ele>557.59997558594</ele>
        <time>2021-12-03T11:53:20Z</time>
      </trkpt>
      <trkpt lat="43.88656" lon="5.49342">
        <ele>556</ele>
        <time>2021-12-03T11:53:35Z</time>
      </trkpt>
      <trkpt lat="43.88643" lon="5.49354">
        <ele>554.59997558594</ele>
        <time>2021-12-03T11:53:52Z</time>
      </trkpt>
      <trkpt lat="43.88628" lon="5.49382">
        <ele>553.40002441406</ele>
        <time>2021-12-03T11:54:17Z</time>
      </trkpt>
      <trkpt lat="43.88615" lon="5.49397">
        <ele>553.20001220703</ele>
        <time>2021-12-03T11:54:35Z</time>
      </trkpt>
      <trkpt lat="43.88597" lon="5.49407">
        <ele>553.40002441406</ele>
        <time>2021-12-03T11:54:57Z</time>
      </trkpt>
      <trkpt lat="43.88572" lon="5.49427">
        <ele>555.40002441406</ele>
        <time>2021-12-03T11:55:24Z</time>
      </trkpt>
      <trkpt lat="43.8855" lon="5.49442">
        <ele>556.79998779297</ele>
        <time>2021-12-03T11:55:48Z</time>
      </trkpt>
      <trkpt lat="43.88546" lon="5.49448">
        <ele>556.79998779297</ele>
        <time>2021-12-03T11:55:53Z</time>
      </trkpt>
      <trkpt lat="43.88535" lon="5.49466">
        <ele>556</ele>
        <time>2021-12-03T11:56:12Z</time>
      </trkpt>
      <trkpt lat="43.88535" lon="5.49469">
        <ele>556</ele>
        <time>2021-12-03T11:56:33Z</time>
      </trkpt>
      <trkpt lat="43.88536" lon="5.49468">
        <ele>555.79998779297</ele>
        <time>2021-12-03T11:56:50Z</time>
      </trkpt>
      <trkpt lat="43.88537" lon="5.49467">
        <ele>555.59997558594</ele>
        <time>2021-12-03T11:56:53Z</time>
      </trkpt>
      <trkpt lat="43.88536" lon="5.49468">
        <ele>555.59997558594</ele>
        <time>2021-12-03T11:57:02Z</time>
      </trkpt>
      <trkpt lat="43.88534" lon="5.4949">
        <ele>555</ele>
        <time>2021-12-03T11:57:21Z</time>
      </trkpt>
      <trkpt lat="43.88535" lon="5.49525">
        <ele>554.79998779297</ele>
        <time>2021-12-03T11:57:45Z</time>
      </trkpt>
      <trkpt lat="43.88535" lon="5.49526">
        <ele>554.79998779297</ele>
        <time>2021-12-03T11:57:46Z</time>
      </trkpt>
      <trkpt lat="43.88538" lon="5.49545">
        <ele>554.79998779297</ele>
        <time>2021-12-03T11:58:00Z</time>
      </trkpt>
      <trkpt lat="43.88536" lon="5.49534">
        <ele>554.79998779297</ele>
        <time>2021-12-03T11:58:12Z</time>
      </trkpt>
      <trkpt lat="43.88537" lon="5.49511">
        <ele>554.59997558594</ele>
        <time>2021-12-03T11:58:30Z</time>
      </trkpt>
      <trkpt lat="43.88537" lon="5.49498">
        <ele>554.20001220703</ele>
        <time>2021-12-03T11:58:43Z</time>
      </trkpt>
      <trkpt lat="43.88536" lon="5.49476">
        <ele>554.40002441406</ele>
        <time>2021-12-03T11:59:01Z</time>
      </trkpt>
      <trkpt lat="43.88535" lon="5.49471">
        <ele>554.59997558594</ele>
        <time>2021-12-03T11:59:30Z</time>
      </trkpt>
      <trkpt lat="43.88535" lon="5.49472">
        <ele>554.59997558594</ele>
        <time>2021-12-03T11:59:31Z</time>
      </trkpt>
      <trkpt lat="43.88536" lon="5.49487">
        <ele>554.79998779297</ele>
        <time>2021-12-03T11:59:47Z</time>
      </trkpt>
      <trkpt lat="43.88534" lon="5.49487">
        <ele>554.59997558594</ele>
        <time>2021-12-03T11:59:50Z</time>
      </trkpt>
      <trkpt lat="43.88521" lon="5.49509">
        <ele>553.79998779297</ele>
        <time>2021-12-03T12:00:11Z</time>
      </trkpt>
      <trkpt lat="43.88507" lon="5.49524">
        <ele>553</ele>
        <time>2021-12-03T12:00:28Z</time>
      </trkpt>
      <trkpt lat="43.88495" lon="5.49533">
        <ele>552.59997558594</ele>
        <time>2021-12-03T12:00:42Z</time>
      </trkpt>
      <trkpt lat="43.88484" lon="5.49542">
        <ele>551.79998779297</ele>
        <time>2021-12-03T12:00:57Z</time>
      </trkpt>
      <trkpt lat="43.88467" lon="5.49547">
        <ele>551</ele>
        <time>2021-12-03T12:01:15Z</time>
      </trkpt>
      <trkpt lat="43.88448" lon="5.49561">
        <ele>549.79998779297</ele>
        <time>2021-12-03T12:01:36Z</time>
      </trkpt>
      <trkpt lat="43.88439" lon="5.49567">
        <ele>549.20001220703</ele>
        <time>2021-12-03T12:01:45Z</time>
      </trkpt>
      <trkpt lat="43.88431" lon="5.49573">
        <ele>548.79998779297</ele>
        <time>2021-12-03T12:01:54Z</time>
      </trkpt>
      <trkpt lat="43.88421" lon="5.4958">
        <ele>548.40002441406</ele>
        <time>2021-12-03T12:02:13Z</time>
      </trkpt>
      <trkpt lat="43.88407" lon="5.49587">
        <ele>547.79998779297</ele>
        <time>2021-12-03T12:02:29Z</time>
      </trkpt>
      <trkpt lat="43.88392" lon="5.49599">
        <ele>547.20001220703</ele>
        <time>2021-12-03T12:02:44Z</time>
      </trkpt>
      <trkpt lat="43.88386" lon="5.49606">
        <ele>546</ele>
        <time>2021-12-03T12:02:54Z</time>
      </trkpt>
      <trkpt lat="43.88381" lon="5.49626">
        <ele>545.20001220703</ele>
        <time>2021-12-03T12:03:14Z</time>
      </trkpt>
      <trkpt lat="43.8838" lon="5.49645">
        <ele>545</ele>
        <time>2021-12-03T12:03:24Z</time>
      </trkpt>
      <trkpt lat="43.88382" lon="5.49656">
        <ele>544.59997558594</ele>
        <time>2021-12-03T12:03:30Z</time>
      </trkpt>
      <trkpt lat="43.88382" lon="5.49679">
        <ele>543.59997558594</ele>
        <time>2021-12-03T12:03:47Z</time>
      </trkpt>
      <trkpt lat="43.88383" lon="5.49699">
        <ele>543</ele>
        <time>2021-12-03T12:04:04Z</time>
      </trkpt>
      <trkpt lat="43.88377" lon="5.49721">
        <ele>542.40002441406</ele>
        <time>2021-12-03T12:04:22Z</time>
      </trkpt>
      <trkpt lat="43.8837" lon="5.4974">
        <ele>541.40002441406</ele>
        <time>2021-12-03T12:04:36Z</time>
      </trkpt>
      <trkpt lat="43.88356" lon="5.49755">
        <ele>540.20001220703</ele>
        <time>2021-12-03T12:04:53Z</time>
      </trkpt>
      <trkpt lat="43.88344" lon="5.49761">
        <ele>539.79998779297</ele>
        <time>2021-12-03T12:05:15Z</time>
      </trkpt>
      <trkpt lat="43.88336" lon="5.49764">
        <ele>540</ele>
        <time>2021-12-03T12:05:34Z</time>
      </trkpt>
      <trkpt lat="43.88321" lon="5.49758">
        <ele>538.59997558594</ele>
        <time>2021-12-03T12:05:55Z</time>
      </trkpt>
      <trkpt lat="43.88308" lon="5.49751">
        <ele>537.79998779297</ele>
        <time>2021-12-03T12:06:12Z</time>
      </trkpt>
      <trkpt lat="43.88299" lon="5.49757">
        <ele>536.20001220703</ele>
        <time>2021-12-03T12:06:28Z</time>
      </trkpt>
      <trkpt lat="43.88289" lon="5.49778">
        <ele>534.59997558594</ele>
        <time>2021-12-03T12:06:48Z</time>
      </trkpt>
      <trkpt lat="43.88276" lon="5.49801">
        <ele>534.20001220703</ele>
        <time>2021-12-03T12:07:08Z</time>
      </trkpt>
      <trkpt lat="43.88272" lon="5.49824">
        <ele>534.40002441406</ele>
        <time>2021-12-03T12:07:26Z</time>
      </trkpt>
      <trkpt lat="43.88278" lon="5.4984">
        <ele>534.79998779297</ele>
        <time>2021-12-03T12:07:40Z</time>
      </trkpt>
      <trkpt lat="43.88281" lon="5.49846">
        <ele>534.79998779297</ele>
        <time>2021-12-03T12:07:44Z</time>
      </trkpt>
      <trkpt lat="43.88283" lon="5.49846">
        <ele>534.79998779297</ele>
        <time>2021-12-03T12:07:46Z</time>
      </trkpt>
      <trkpt lat="43.88296" lon="5.49863">
        <ele>534.20001220703</ele>
        <time>2021-12-03T12:08:04Z</time>
      </trkpt>
      <trkpt lat="43.88291" lon="5.49889">
        <ele>532.40002441406</ele>
        <time>2021-12-03T12:08:23Z</time>
      </trkpt>
      <trkpt lat="43.88292" lon="5.499">
        <ele>532.40002441406</ele>
        <time>2021-12-03T12:08:44Z</time>
      </trkpt>
      <trkpt lat="43.88297" lon="5.499">
        <ele>533</ele>
        <time>2021-12-03T12:09:02Z</time>
      </trkpt>
      <trkpt lat="43.88297" lon="5.49897">
        <ele>533.40002441406</ele>
        <time>2021-12-03T12:09:31Z</time>
      </trkpt>
      <trkpt lat="43.88289" lon="5.49895">
        <ele>532.79998779297</ele>
        <time>2021-12-03T12:09:52Z</time>
      </trkpt>
      <trkpt lat="43.88283" lon="5.49906">
        <ele>531.20001220703</ele>
        <time>2021-12-03T12:10:17Z</time>
      </trkpt>
      <trkpt lat="43.88271" lon="5.49923">
        <ele>530.40002441406</ele>
        <time>2021-12-03T12:10:37Z</time>
      </trkpt>
      <trkpt lat="43.88259" lon="5.49935">
        <ele>530.59997558594</ele>
        <time>2021-12-03T12:10:53Z</time>
      </trkpt>
      <trkpt lat="43.88239" lon="5.49946">
        <ele>529.40002441406</ele>
        <time>2021-12-03T12:11:13Z</time>
      </trkpt>
      <trkpt lat="43.88244" lon="5.49959">
        <ele>530</ele>
        <time>2021-12-03T12:11:26Z</time>
      </trkpt>
      <trkpt lat="43.88249" lon="5.49981">
        <ele>530.59997558594</ele>
        <time>2021-12-03T12:11:44Z</time>
      </trkpt>
      <trkpt lat="43.88256" lon="5.50003">
        <ele>530.20001220703</ele>
        <time>2021-12-03T12:12:01Z</time>
      </trkpt>
      <trkpt lat="43.88262" lon="5.50018">
        <ele>529.59997558594</ele>
        <time>2021-12-03T12:12:21Z</time>
      </trkpt>
      <trkpt lat="43.88256" lon="5.50025">
        <ele>528.40002441406</ele>
        <time>2021-12-03T12:12:30Z</time>
      </trkpt>
      <trkpt lat="43.88273" lon="5.5004">
        <ele>527</ele>
        <time>2021-12-03T12:12:47Z</time>
      </trkpt>
      <trkpt lat="43.88291" lon="5.50048">
        <ele>527.20001220703</ele>
        <time>2021-12-03T12:13:04Z</time>
      </trkpt>
      <trkpt lat="43.883" lon="5.50046">
        <ele>527.79998779297</ele>
        <time>2021-12-03T12:13:17Z</time>
      </trkpt>
      <trkpt lat="43.88306" lon="5.50046">
        <ele>529</ele>
        <time>2021-12-03T12:13:25Z</time>
      </trkpt>
      <trkpt lat="43.88324" lon="5.50053">
        <ele>530</ele>
        <time>2021-12-03T12:13:39Z</time>
      </trkpt>
      <trkpt lat="43.88335" lon="5.50062">
        <ele>530.59997558594</ele>
        <time>2021-12-03T12:13:51Z</time>
      </trkpt>
      <trkpt lat="43.88352" lon="5.50073">
        <ele>530.79998779297</ele>
        <time>2021-12-03T12:14:10Z</time>
      </trkpt>
      <trkpt lat="43.88364" lon="5.50078">
        <ele>531.59997558594</ele>
        <time>2021-12-03T12:14:20Z</time>
      </trkpt>
      <trkpt lat="43.88375" lon="5.50089">
        <ele>531.59997558594</ele>
        <time>2021-12-03T12:14:32Z</time>
      </trkpt>
      <trkpt lat="43.88389" lon="5.50112">
        <ele>531.20001220703</ele>
        <time>2021-12-03T12:14:51Z</time>
      </trkpt>
      <trkpt lat="43.88398" lon="5.50131">
        <ele>530.79998779297</ele>
        <time>2021-12-03T12:15:04Z</time>
      </trkpt>
      <trkpt lat="43.88403" lon="5.50139">
        <ele>530.40002441406</ele>
        <time>2021-12-03T12:15:11Z</time>
      </trkpt>
      <trkpt lat="43.88414" lon="5.50156">
        <ele>530.40002441406</ele>
        <time>2021-12-03T12:15:27Z</time>
      </trkpt>
      <trkpt lat="43.8842" lon="5.50178">
        <ele>529.40002441406</ele>
        <time>2021-12-03T12:15:43Z</time>
      </trkpt>
      <trkpt lat="43.88406" lon="5.50201">
        <ele>528</ele>
        <time>2021-12-03T12:16:02Z</time>
      </trkpt>
      <trkpt lat="43.88397" lon="5.50219">
        <ele>527.79998779297</ele>
        <time>2021-12-03T12:16:18Z</time>
      </trkpt>
      <trkpt lat="43.88397" lon="5.50223">
        <ele>528</ele>
        <time>2021-12-03T12:16:21Z</time>
      </trkpt>
      <trkpt lat="43.88402" lon="5.50233">
        <ele>528.40002441406</ele>
        <time>2021-12-03T12:16:27Z</time>
      </trkpt>
      <trkpt lat="43.88413" lon="5.50256">
        <ele>529</ele>
        <time>2021-12-03T12:16:44Z</time>
      </trkpt>
      <trkpt lat="43.88425" lon="5.50282">
        <ele>527.59997558594</ele>
        <time>2021-12-03T12:17:00Z</time>
      </trkpt>
      <trkpt lat="43.8843" lon="5.50292">
        <ele>526.59997558594</ele>
        <time>2021-12-03T12:17:08Z</time>
      </trkpt>
      <trkpt lat="43.88442" lon="5.50316">
        <ele>525.20001220703</ele>
        <time>2021-12-03T12:17:25Z</time>
      </trkpt>
      <trkpt lat="43.88454" lon="5.50335">
        <ele>523</ele>
        <time>2021-12-03T12:17:40Z</time>
      </trkpt>
      <trkpt lat="43.88458" lon="5.50359">
        <ele>521.40002441406</ele>
        <time>2021-12-03T12:17:56Z</time>
      </trkpt>
      <trkpt lat="43.88457" lon="5.50385">
        <ele>520.79998779297</ele>
        <time>2021-12-03T12:18:11Z</time>
      </trkpt>
      <trkpt lat="43.88457" lon="5.5039">
        <ele>520.79998779297</ele>
        <time>2021-12-03T12:18:14Z</time>
      </trkpt>
      <trkpt lat="43.88455" lon="5.50419">
        <ele>520.79998779297</ele>
        <time>2021-12-03T12:18:33Z</time>
      </trkpt>
      <trkpt lat="43.88463" lon="5.50447">
        <ele>520</ele>
        <time>2021-12-03T12:18:50Z</time>
      </trkpt>
      <trkpt lat="43.8847" lon="5.50479">
        <ele>516.79998779297</ele>
        <time>2021-12-03T12:19:09Z</time>
      </trkpt>
      <trkpt lat="43.8847" lon="5.50481">
        <ele>516.59997558594</ele>
        <time>2021-12-03T12:19:10Z</time>
      </trkpt>
      <trkpt lat="43.88471" lon="5.50509">
        <ele>513.20001220703</ele>
        <time>2021-12-03T12:19:28Z</time>
      </trkpt>
      <trkpt lat="43.88473" lon="5.50537">
        <ele>510</ele>
        <time>2021-12-03T12:19:45Z</time>
      </trkpt>
      <trkpt lat="43.88476" lon="5.5056">
        <ele>507</ele>
        <time>2021-12-03T12:20:00Z</time>
      </trkpt>
      <trkpt lat="43.88477" lon="5.5058">
        <ele>505</ele>
        <time>2021-12-03T12:20:13Z</time>
      </trkpt>
      <trkpt lat="43.88479" lon="5.50591">
        <ele>504.20001220703</ele>
        <time>2021-12-03T12:20:19Z</time>
      </trkpt>
      <trkpt lat="43.88482" lon="5.50604">
        <ele>503.60000610352</ele>
        <time>2021-12-03T12:20:27Z</time>
      </trkpt>
      <trkpt lat="43.8849" lon="5.5062">
        <ele>501</ele>
        <time>2021-12-03T12:20:42Z</time>
      </trkpt>
      <trkpt lat="43.88497" lon="5.50653">
        <ele>499.39999389648</ele>
        <time>2021-12-03T12:21:03Z</time>
      </trkpt>
      <trkpt lat="43.88502" lon="5.5068">
        <ele>496.39999389648</ele>
        <time>2021-12-03T12:21:20Z</time>
      </trkpt>
      <trkpt lat="43.88516" lon="5.50707">
        <ele>494.60000610352</ele>
        <time>2021-12-03T12:21:39Z</time>
      </trkpt>
      <trkpt lat="43.88527" lon="5.5073">
        <ele>494</ele>
        <time>2021-12-03T12:21:57Z</time>
      </trkpt>
      <trkpt lat="43.88528" lon="5.50742">
        <ele>494</ele>
        <time>2021-12-03T12:22:06Z</time>
      </trkpt>
      <trkpt lat="43.88529" lon="5.50753">
        <ele>494.20001220703</ele>
        <time>2021-12-03T12:22:13Z</time>
      </trkpt>
      <trkpt lat="43.88529" lon="5.50775">
        <ele>494</ele>
        <time>2021-12-03T12:22:28Z</time>
      </trkpt>
      <trkpt lat="43.8853" lon="5.50798">
        <ele>491.20001220703</ele>
        <time>2021-12-03T12:22:45Z</time>
      </trkpt>
      <trkpt lat="43.88526" lon="5.50828">
        <ele>488</ele>
        <time>2021-12-03T12:23:05Z</time>
      </trkpt>
      <trkpt lat="43.88515" lon="5.50847">
        <ele>486</ele>
        <time>2021-12-03T12:23:19Z</time>
      </trkpt>
      <trkpt lat="43.88509" lon="5.50852">
        <ele>485.60000610352</ele>
        <time>2021-12-03T12:23:27Z</time>
      </trkpt>
      <trkpt lat="43.88496" lon="5.50856">
        <ele>485.20001220703</ele>
        <time>2021-12-03T12:23:41Z</time>
      </trkpt>
      <trkpt lat="43.88491" lon="5.50856">
        <ele>485</ele>
        <time>2021-12-03T12:23:45Z</time>
      </trkpt>
      <trkpt lat="43.88477" lon="5.5085">
        <ele>484.39999389648</ele>
        <time>2021-12-03T12:24:00Z</time>
      </trkpt>
      <trkpt lat="43.8846" lon="5.50839">
        <ele>481.79998779297</ele>
        <time>2021-12-03T12:24:21Z</time>
      </trkpt>
      <trkpt lat="43.88446" lon="5.50825">
        <ele>479.20001220703</ele>
        <time>2021-12-03T12:24:41Z</time>
      </trkpt>
      <trkpt lat="43.88433" lon="5.50816">
        <ele>476</ele>
        <time>2021-12-03T12:24:59Z</time>
      </trkpt>
      <trkpt lat="43.88418" lon="5.50815">
        <ele>472.79998779297</ele>
        <time>2021-12-03T12:25:19Z</time>
      </trkpt>
      <trkpt lat="43.88407" lon="5.50834">
        <ele>470.79998779297</ele>
        <time>2021-12-03T12:25:41Z</time>
      </trkpt>
      <trkpt lat="43.884" lon="5.50853">
        <ele>469</ele>
        <time>2021-12-03T12:25:59Z</time>
      </trkpt>
      <trkpt lat="43.88396" lon="5.50864">
        <ele>468.60000610352</ele>
        <time>2021-12-03T12:26:09Z</time>
      </trkpt>
      <trkpt lat="43.88392" lon="5.50869">
        <ele>467.79998779297</ele>
        <time>2021-12-03T12:26:15Z</time>
      </trkpt>
      <trkpt lat="43.88389" lon="5.50879">
        <ele>466.79998779297</ele>
        <time>2021-12-03T12:26:24Z</time>
      </trkpt>
      <trkpt lat="43.88389" lon="5.50883">
        <ele>466.60000610352</ele>
        <time>2021-12-03T12:26:27Z</time>
      </trkpt>
      <trkpt lat="43.8838" lon="5.50913">
        <ele>465</ele>
        <time>2021-12-03T12:26:49Z</time>
      </trkpt>
      <trkpt lat="43.88367" lon="5.5094">
        <ele>464</ele>
        <time>2021-12-03T12:27:14Z</time>
      </trkpt>
      <trkpt lat="43.88357" lon="5.50947">
        <ele>461.39999389648</ele>
        <time>2021-12-03T12:27:30Z</time>
      </trkpt>
      <trkpt lat="43.88352" lon="5.50961">
        <ele>460.79998779297</ele>
        <time>2021-12-03T12:27:50Z</time>
      </trkpt>
      <trkpt lat="43.88351" lon="5.50967">
        <ele>460.20001220703</ele>
        <time>2021-12-03T12:28:16Z</time>
      </trkpt>
      <trkpt lat="43.88352" lon="5.50967">
        <ele>460</ele>
        <time>2021-12-03T12:28:23Z</time>
      </trkpt>
      <trkpt lat="43.88351" lon="5.50967">
        <ele>459.79998779297</ele>
        <time>2021-12-03T12:28:53Z</time>
      </trkpt>
      <trkpt lat="43.8835" lon="5.50965">
        <ele>459.79998779297</ele>
        <time>2021-12-03T12:29:20Z</time>
      </trkpt>
      <trkpt lat="43.88357" lon="5.5097">
        <ele>459.79998779297</ele>
        <time>2021-12-03T12:29:54Z</time>
      </trkpt>
      <trkpt lat="43.8838" lon="5.50995">
        <ele>458</ele>
        <time>2021-12-03T12:30:23Z</time>
      </trkpt>
      <trkpt lat="43.88365" lon="5.51002">
        <ele>455.60000610352</ele>
        <time>2021-12-03T12:30:43Z</time>
      </trkpt>
      <trkpt lat="43.88343" lon="5.51012">
        <ele>454</ele>
        <time>2021-12-03T12:31:03Z</time>
      </trkpt>
      <trkpt lat="43.88325" lon="5.51024">
        <ele>452.60000610352</ele>
        <time>2021-12-03T12:31:22Z</time>
      </trkpt>
      <trkpt lat="43.88309" lon="5.51037">
        <ele>451.20001220703</ele>
        <time>2021-12-03T12:31:39Z</time>
      </trkpt>
      <trkpt lat="43.88294" lon="5.51048">
        <ele>448</ele>
        <time>2021-12-03T12:31:56Z</time>
      </trkpt>
      <trkpt lat="43.88284" lon="5.51053">
        <ele>446.79998779297</ele>
        <time>2021-12-03T12:32:05Z</time>
      </trkpt>
      <trkpt lat="43.88277" lon="5.51056">
        <ele>445.79998779297</ele>
        <time>2021-12-03T12:32:10Z</time>
      </trkpt>
      <trkpt lat="43.88266" lon="5.5107">
        <ele>443.60000610352</ele>
        <time>2021-12-03T12:32:25Z</time>
      </trkpt>
      <trkpt lat="43.88259" lon="5.51094">
        <ele>440.20001220703</ele>
        <time>2021-12-03T12:32:41Z</time>
      </trkpt>
      <trkpt lat="43.88242" lon="5.51096">
        <ele>436.79998779297</ele>
        <time>2021-12-03T12:33:00Z</time>
      </trkpt>
      <trkpt lat="43.88234" lon="5.51097">
        <ele>435.39999389648</ele>
        <time>2021-12-03T12:33:06Z</time>
      </trkpt>
      <trkpt lat="43.88219" lon="5.51097">
        <ele>434.39999389648</ele>
        <time>2021-12-03T12:33:19Z</time>
      </trkpt>
      <trkpt lat="43.88204" lon="5.51106">
        <ele>433.60000610352</ele>
        <time>2021-12-03T12:33:30Z</time>
      </trkpt>
      <trkpt lat="43.88186" lon="5.51123">
        <ele>432.79998779297</ele>
        <time>2021-12-03T12:33:47Z</time>
      </trkpt>
      <trkpt lat="43.88178" lon="5.5114">
        <ele>432</ele>
        <time>2021-12-03T12:33:56Z</time>
      </trkpt>
      <trkpt lat="43.88164" lon="5.5116">
        <ele>428.60000610352</ele>
        <time>2021-12-03T12:34:15Z</time>
      </trkpt>
      <trkpt lat="43.88155" lon="5.51169">
        <ele>427.39999389648</ele>
        <time>2021-12-03T12:34:24Z</time>
      </trkpt>
      <trkpt lat="43.88128" lon="5.51189">
        <ele>425</ele>
        <time>2021-12-03T12:34:47Z</time>
      </trkpt>
      <trkpt lat="43.881" lon="5.51205">
        <ele>424.39999389648</ele>
        <time>2021-12-03T12:35:11Z</time>
      </trkpt>
      <trkpt lat="43.88081" lon="5.51232">
        <ele>425</ele>
        <time>2021-12-03T12:35:33Z</time>
      </trkpt>
      <trkpt lat="43.8808" lon="5.51234">
        <ele>425.20001220703</ele>
        <time>2021-12-03T12:35:34Z</time>
      </trkpt>
      <trkpt lat="43.88075" lon="5.51243">
        <ele>425.79998779297</ele>
        <time>2021-12-03T12:35:40Z</time>
      </trkpt>
      <trkpt lat="43.88066" lon="5.51254">
        <ele>425.79998779297</ele>
        <time>2021-12-03T12:35:51Z</time>
      </trkpt>
      <trkpt lat="43.88064" lon="5.51258">
        <ele>425.60000610352</ele>
        <time>2021-12-03T12:35:54Z</time>
      </trkpt>
      <trkpt lat="43.88049" lon="5.51273">
        <ele>424.60000610352</ele>
        <time>2021-12-03T12:36:12Z</time>
      </trkpt>
      <trkpt lat="43.88033" lon="5.51289">
        <ele>421.39999389648</ele>
        <time>2021-12-03T12:36:34Z</time>
      </trkpt>
      <trkpt lat="43.88025" lon="5.51298">
        <ele>421.39999389648</ele>
        <time>2021-12-03T12:37:00Z</time>
      </trkpt>
      <trkpt lat="43.88006" lon="5.51294">
        <ele>421.39999389648</ele>
        <time>2021-12-03T12:37:22Z</time>
      </trkpt>
      <trkpt lat="43.87984" lon="5.51309">
        <ele>423.39999389648</ele>
        <time>2021-12-03T12:37:49Z</time>
      </trkpt>
      <trkpt lat="43.87969" lon="5.51327">
        <ele>426.20001220703</ele>
        <time>2021-12-03T12:38:11Z</time>
      </trkpt>
      <trkpt lat="43.87956" lon="5.5134">
        <ele>429.20001220703</ele>
        <time>2021-12-03T12:38:32Z</time>
      </trkpt>
      <trkpt lat="43.87937" lon="5.51352">
        <ele>431.39999389648</ele>
        <time>2021-12-03T12:38:57Z</time>
      </trkpt>
      <trkpt lat="43.87916" lon="5.51368">
        <ele>432.20001220703</ele>
        <time>2021-12-03T12:39:21Z</time>
      </trkpt>
      <trkpt lat="43.87894" lon="5.51386">
        <ele>431.79998779297</ele>
        <time>2021-12-03T12:39:45Z</time>
      </trkpt>
      <trkpt lat="43.87885" lon="5.51392">
        <ele>431.20001220703</ele>
        <time>2021-12-03T12:39:56Z</time>
      </trkpt>
      <trkpt lat="43.87873" lon="5.51391">
        <ele>429.20001220703</ele>
        <time>2021-12-03T12:40:09Z</time>
      </trkpt>
      <trkpt lat="43.87853" lon="5.51381">
        <ele>427.60000610352</ele>
        <time>2021-12-03T12:40:31Z</time>
      </trkpt>
      <trkpt lat="43.8783" lon="5.51388">
        <ele>427.60000610352</ele>
        <time>2021-12-03T12:40:53Z</time>
      </trkpt>
      <trkpt lat="43.87818" lon="5.51395">
        <ele>430.79998779297</ele>
        <time>2021-12-03T12:41:14Z</time>
      </trkpt>
      <trkpt lat="43.87811" lon="5.51401">
        <ele>433.79998779297</ele>
        <time>2021-12-03T12:41:33Z</time>
      </trkpt>
      <trkpt lat="43.87799" lon="5.51409">
        <ele>437</ele>
        <time>2021-12-03T12:41:54Z</time>
      </trkpt>
      <trkpt lat="43.87785" lon="5.51412">
        <ele>440</ele>
        <time>2021-12-03T12:42:11Z</time>
      </trkpt>
      <trkpt lat="43.87772" lon="5.51416">
        <ele>443</ele>
        <time>2021-12-03T12:42:29Z</time>
      </trkpt>
      <trkpt lat="43.87757" lon="5.51415">
        <ele>446.20001220703</ele>
        <time>2021-12-03T12:42:49Z</time>
      </trkpt>
      <trkpt lat="43.87739" lon="5.51423">
        <ele>448.79998779297</ele>
        <time>2021-12-03T12:43:13Z</time>
      </trkpt>
      <trkpt lat="43.87718" lon="5.51425">
        <ele>451.60000610352</ele>
        <time>2021-12-03T12:43:38Z</time>
      </trkpt>
      <trkpt lat="43.877" lon="5.51424">
        <ele>453.39999389648</ele>
        <time>2021-12-03T12:43:58Z</time>
      </trkpt>
      <trkpt lat="43.87675" lon="5.51428">
        <ele>455.39999389648</ele>
        <time>2021-12-03T12:44:23Z</time>
      </trkpt>
      <trkpt lat="43.87646" lon="5.51424">
        <ele>455.60000610352</ele>
        <time>2021-12-03T12:44:49Z</time>
      </trkpt>
      <trkpt lat="43.87628" lon="5.51421">
        <ele>455.39999389648</ele>
        <time>2021-12-03T12:45:07Z</time>
      </trkpt>
      <trkpt lat="43.87599" lon="5.51412">
        <ele>456</ele>
        <time>2021-12-03T12:45:29Z</time>
      </trkpt>
      <trkpt lat="43.87595" lon="5.51412">
        <ele>456</ele>
        <time>2021-12-03T12:45:32Z</time>
      </trkpt>
      <trkpt lat="43.87561" lon="5.51411">
        <ele>458</ele>
        <time>2021-12-03T12:45:58Z</time>
      </trkpt>
      <trkpt lat="43.87532" lon="5.51405">
        <ele>460.60000610352</ele>
        <time>2021-12-03T12:46:22Z</time>
      </trkpt>
      <trkpt lat="43.87508" lon="5.51393">
        <ele>462.39999389648</ele>
        <time>2021-12-03T12:46:47Z</time>
      </trkpt>
      <trkpt lat="43.87485" lon="5.51377">
        <ele>464</ele>
        <time>2021-12-03T12:47:09Z</time>
      </trkpt>
      <trkpt lat="43.87463" lon="5.51367">
        <ele>464</ele>
        <time>2021-12-03T12:47:27Z</time>
      </trkpt>
      <trkpt lat="43.87445" lon="5.51359">
        <ele>463.60000610352</ele>
        <time>2021-12-03T12:47:44Z</time>
      </trkpt>
      <trkpt lat="43.8741" lon="5.51355">
        <ele>463.20001220703</ele>
        <time>2021-12-03T12:48:10Z</time>
      </trkpt>
      <trkpt lat="43.87379" lon="5.51355">
        <ele>460.20001220703</ele>
        <time>2021-12-03T12:48:35Z</time>
      </trkpt>
      <trkpt lat="43.87343" lon="5.5135">
        <ele>458.20001220703</ele>
        <time>2021-12-03T12:49:04Z</time>
      </trkpt>
      <trkpt lat="43.87315" lon="5.5135">
        <ele>458.39999389648</ele>
        <time>2021-12-03T12:49:29Z</time>
      </trkpt>
      <trkpt lat="43.87287" lon="5.51364">
        <ele>459</ele>
        <time>2021-12-03T12:49:52Z</time>
      </trkpt>
      <trkpt lat="43.87261" lon="5.51359">
        <ele>461.60000610352</ele>
        <time>2021-12-03T12:50:17Z</time>
      </trkpt>
      <trkpt lat="43.87231" lon="5.51355">
        <ele>462.20001220703</ele>
        <time>2021-12-03T12:50:43Z</time>
      </trkpt>
      <trkpt lat="43.87227" lon="5.51354">
        <ele>462.20001220703</ele>
        <time>2021-12-03T12:50:46Z</time>
      </trkpt>
      <trkpt lat="43.87197" lon="5.51353">
        <ele>462.79998779297</ele>
        <time>2021-12-03T12:51:11Z</time>
      </trkpt>
      <trkpt lat="43.87163" lon="5.5135">
        <ele>462.39999389648</ele>
        <time>2021-12-03T12:51:37Z</time>
      </trkpt>
      <trkpt lat="43.8713" lon="5.51353">
        <ele>462.60000610352</ele>
        <time>2021-12-03T12:52:02Z</time>
      </trkpt>
      <trkpt lat="43.87122" lon="5.51351">
        <ele>462.79998779297</ele>
        <time>2021-12-03T12:52:10Z</time>
      </trkpt>
      <trkpt lat="43.87103" lon="5.51344">
        <ele>463</ele>
        <time>2021-12-03T12:52:26Z</time>
      </trkpt>
      <trkpt lat="43.87083" lon="5.51335">
        <ele>462.60000610352</ele>
        <time>2021-12-03T12:52:43Z</time>
      </trkpt>
      <trkpt lat="43.87067" lon="5.51329">
        <ele>462.20001220703</ele>
        <time>2021-12-03T12:52:58Z</time>
      </trkpt>
      <trkpt lat="43.87044" lon="5.51329">
        <ele>462</ele>
        <time>2021-12-03T12:53:19Z</time>
      </trkpt>
      <trkpt lat="43.87025" lon="5.51328">
        <ele>460.60000610352</ele>
        <time>2021-12-03T12:53:39Z</time>
      </trkpt>
      <trkpt lat="43.87007" lon="5.51318">
        <ele>458.20001220703</ele>
        <time>2021-12-03T12:54:00Z</time>
      </trkpt>
      <trkpt lat="43.86996" lon="5.51322">
        <ele>457.60000610352</ele>
        <time>2021-12-03T12:54:17Z</time>
      </trkpt>
      <trkpt lat="43.86988" lon="5.51325">
        <ele>457.79998779297</ele>
        <time>2021-12-03T12:54:44Z</time>
      </trkpt>
      <trkpt lat="43.86981" lon="5.51331">
        <ele>457.60000610352</ele>
        <time>2021-12-03T12:55:11Z</time>
      </trkpt>
      <trkpt lat="43.86965" lon="5.51345">
        <ele>458.39999389648</ele>
        <time>2021-12-03T12:55:32Z</time>
      </trkpt>
      <trkpt lat="43.86952" lon="5.51372">
        <ele>459.60000610352</ele>
        <time>2021-12-03T12:55:54Z</time>
      </trkpt>
      <trkpt lat="43.86943" lon="5.51395">
        <ele>459</ele>
        <time>2021-12-03T12:56:13Z</time>
      </trkpt>
      <trkpt lat="43.86929" lon="5.5142">
        <ele>457.39999389648</ele>
        <time>2021-12-03T12:56:32Z</time>
      </trkpt>
      <trkpt lat="43.86908" lon="5.51433">
        <ele>455.60000610352</ele>
        <time>2021-12-03T12:56:52Z</time>
      </trkpt>
      <trkpt lat="43.86883" lon="5.51441">
        <ele>453.39999389648</ele>
        <time>2021-12-03T12:57:15Z</time>
      </trkpt>
      <trkpt lat="43.86881" lon="5.5144">
        <ele>453.39999389648</ele>
        <time>2021-12-03T12:57:16Z</time>
      </trkpt>
      <trkpt lat="43.8686" lon="5.51439">
        <ele>451</ele>
        <time>2021-12-03T12:57:37Z</time>
      </trkpt>
      <trkpt lat="43.86826" lon="5.5144">
        <ele>449</ele>
        <time>2021-12-03T12:58:06Z</time>
      </trkpt>
      <trkpt lat="43.86808" lon="5.51456">
        <ele>446.79998779297</ele>
        <time>2021-12-03T12:58:32Z</time>
      </trkpt>
      <trkpt lat="43.86796" lon="5.51467">
        <ele>445</ele>
        <time>2021-12-03T12:58:51Z</time>
      </trkpt>
      <trkpt lat="43.86788" lon="5.51475">
        <ele>444</ele>
        <time>2021-12-03T12:59:16Z</time>
      </trkpt>
      <trkpt lat="43.86783" lon="5.51479">
        <ele>443.39999389648</ele>
        <time>2021-12-03T12:59:33Z</time>
      </trkpt>
      <trkpt lat="43.86776" lon="5.51484">
        <ele>443.20001220703</ele>
        <time>2021-12-03T12:59:59Z</time>
      </trkpt>
      <trkpt lat="43.86766" lon="5.51493">
        <ele>442.79998779297</ele>
        <time>2021-12-03T13:00:11Z</time>
      </trkpt>
      <trkpt lat="43.86762" lon="5.51497">
        <ele>442.20001220703</ele>
        <time>2021-12-03T13:00:17Z</time>
      </trkpt>
      <trkpt lat="43.86756" lon="5.51502">
        <ele>441.60000610352</ele>
        <time>2021-12-03T13:00:23Z</time>
      </trkpt>
      <trkpt lat="43.86742" lon="5.51524">
        <ele>440</ele>
        <time>2021-12-03T13:00:41Z</time>
      </trkpt>
      <trkpt lat="43.86732" lon="5.51547">
        <ele>438.20001220703</ele>
        <time>2021-12-03T13:00:57Z</time>
      </trkpt>
      <trkpt lat="43.8672" lon="5.51559">
        <ele>436.60000610352</ele>
        <time>2021-12-03T13:01:10Z</time>
      </trkpt>
      <trkpt lat="43.8671" lon="5.51565">
        <ele>434.79998779297</ele>
        <time>2021-12-03T13:01:21Z</time>
      </trkpt>
      <trkpt lat="43.86692" lon="5.51574">
        <ele>433</ele>
        <time>2021-12-03T13:01:39Z</time>
      </trkpt>
      <trkpt lat="43.8669" lon="5.51575">
        <ele>432.79998779297</ele>
        <time>2021-12-03T13:01:41Z</time>
      </trkpt>
      <trkpt lat="43.86682" lon="5.51577">
        <ele>432</ele>
        <time>2021-12-03T13:01:48Z</time>
      </trkpt>
      <trkpt lat="43.86664" lon="5.51579">
        <ele>430.79998779297</ele>
        <time>2021-12-03T13:02:03Z</time>
      </trkpt>
      <trkpt lat="43.86649" lon="5.51574">
        <ele>429.20001220703</ele>
        <time>2021-12-03T13:02:18Z</time>
      </trkpt>
      <trkpt lat="43.86645" lon="5.51574">
        <ele>428.79998779297</ele>
        <time>2021-12-03T13:02:22Z</time>
      </trkpt>
      <trkpt lat="43.86633" lon="5.51584">
        <ele>427.20001220703</ele>
        <time>2021-12-03T13:02:36Z</time>
      </trkpt>
      <trkpt lat="43.86632" lon="5.51583">
        <ele>427</ele>
        <time>2021-12-03T13:02:37Z</time>
      </trkpt>
      <trkpt lat="43.86627" lon="5.51584">
        <ele>427</ele>
        <time>2021-12-03T13:02:42Z</time>
      </trkpt>
      <trkpt lat="43.86621" lon="5.51583">
        <ele>427</ele>
        <time>2021-12-03T13:02:48Z</time>
      </trkpt>
      <trkpt lat="43.86619" lon="5.51582">
        <ele>427</ele>
        <time>2021-12-03T13:02:50Z</time>
      </trkpt>
      <trkpt lat="43.86609" lon="5.51573">
        <ele>427</ele>
        <time>2021-12-03T13:03:03Z</time>
      </trkpt>
      <trkpt lat="43.8659" lon="5.5156">
        <ele>426.79998779297</ele>
        <time>2021-12-03T13:03:24Z</time>
      </trkpt>
      <trkpt lat="43.86587" lon="5.51555">
        <ele>427</ele>
        <time>2021-12-03T13:03:28Z</time>
      </trkpt>
      <trkpt lat="43.86584" lon="5.51549">
        <ele>427</ele>
        <time>2021-12-03T13:03:32Z</time>
      </trkpt>
      <trkpt lat="43.86575" lon="5.51534">
        <ele>426.60000610352</ele>
        <time>2021-12-03T13:03:47Z</time>
      </trkpt>
      <trkpt lat="43.86568" lon="5.51521">
        <ele>426.79998779297</ele>
        <time>2021-12-03T13:04:01Z</time>
      </trkpt>
      <trkpt lat="43.86556" lon="5.515">
        <ele>426.79998779297</ele>
        <time>2021-12-03T13:04:17Z</time>
      </trkpt>
      <trkpt lat="43.86543" lon="5.5148">
        <ele>427</ele>
        <time>2021-12-03T13:04:34Z</time>
      </trkpt>
      <trkpt lat="43.86524" lon="5.51461">
        <ele>427.39999389648</ele>
        <time>2021-12-03T13:04:53Z</time>
      </trkpt>
      <trkpt lat="43.86502" lon="5.51448">
        <ele>428.20001220703</ele>
        <time>2021-12-03T13:05:14Z</time>
      </trkpt>
      <trkpt lat="43.86475" lon="5.51445">
        <ele>429.39999389648</ele>
        <time>2021-12-03T13:05:38Z</time>
      </trkpt>
      <trkpt lat="43.86445" lon="5.51446">
        <ele>431.39999389648</ele>
        <time>2021-12-03T13:06:04Z</time>
      </trkpt>
      <trkpt lat="43.86416" lon="5.51441">
        <ele>433.79998779297</ele>
        <time>2021-12-03T13:06:31Z</time>
      </trkpt>
      <trkpt lat="43.86392" lon="5.51426">
        <ele>435.20001220703</ele>
        <time>2021-12-03T13:06:53Z</time>
      </trkpt>
      <trkpt lat="43.86375" lon="5.51424">
        <ele>436</ele>
        <time>2021-12-03T13:07:06Z</time>
      </trkpt>
      <trkpt lat="43.86371" lon="5.51419">
        <ele>436.20001220703</ele>
        <time>2021-12-03T13:07:14Z</time>
      </trkpt>
      <trkpt lat="43.86349" lon="5.51414">
        <ele>436</ele>
        <time>2021-12-03T13:07:32Z</time>
      </trkpt>
      <trkpt lat="43.86345" lon="5.51415">
        <ele>436</ele>
        <time>2021-12-03T13:07:34Z</time>
      </trkpt>
      <trkpt lat="43.86306" lon="5.51399">
        <ele>437</ele>
        <time>2021-12-03T13:08:06Z</time>
      </trkpt>
      <trkpt lat="43.86301" lon="5.51396">
        <ele>437</ele>
        <time>2021-12-03T13:08:11Z</time>
      </trkpt>
      <trkpt lat="43.86299" lon="5.51399">
        <ele>437.39999389648</ele>
        <time>2021-12-03T13:08:18Z</time>
      </trkpt>
      <trkpt lat="43.86285" lon="5.51387">
        <ele>438</ele>
        <time>2021-12-03T13:08:32Z</time>
      </trkpt>
      <trkpt lat="43.86287" lon="5.5138">
        <ele>438.20001220703</ele>
        <time>2021-12-03T13:08:48Z</time>
      </trkpt>
      <trkpt lat="43.86281" lon="5.51381">
        <ele>438</ele>
        <time>2021-12-03T13:08:57Z</time>
      </trkpt>
      <trkpt lat="43.86266" lon="5.51378">
        <ele>438</ele>
        <time>2021-12-03T13:09:11Z</time>
      </trkpt>
      <trkpt lat="43.86246" lon="5.51372">
        <ele>438.60000610352</ele>
        <time>2021-12-03T13:09:31Z</time>
      </trkpt>
      <trkpt lat="43.86227" lon="5.51364">
        <ele>439</ele>
        <time>2021-12-03T13:09:47Z</time>
      </trkpt>
      <trkpt lat="43.86219" lon="5.51362">
        <ele>439.20001220703</ele>
        <time>2021-12-03T13:09:54Z</time>
      </trkpt>
      <trkpt lat="43.86215" lon="5.51361">
        <ele>439.39999389648</ele>
        <time>2021-12-03T13:09:58Z</time>
      </trkpt>
      <trkpt lat="43.86202" lon="5.51353">
        <ele>440.20001220703</ele>
        <time>2021-12-03T13:10:10Z</time>
      </trkpt>
      <trkpt lat="43.86185" lon="5.51347">
        <ele>441</ele>
        <time>2021-12-03T13:10:26Z</time>
      </trkpt>
      <trkpt lat="43.86174" lon="5.51339">
        <ele>441.20001220703</ele>
        <time>2021-12-03T13:10:38Z</time>
      </trkpt>
      <trkpt lat="43.86155" lon="5.51317">
        <ele>441.79998779297</ele>
        <time>2021-12-03T13:10:58Z</time>
      </trkpt>
      <trkpt lat="43.86149" lon="5.51311">
        <ele>441.79998779297</ele>
        <time>2021-12-03T13:11:04Z</time>
      </trkpt>
      <trkpt lat="43.86133" lon="5.51298">
        <ele>442.39999389648</ele>
        <time>2021-12-03T13:11:24Z</time>
      </trkpt>
      <trkpt lat="43.86116" lon="5.51288">
        <ele>442.79998779297</ele>
        <time>2021-12-03T13:11:43Z</time>
      </trkpt>
      <trkpt lat="43.86102" lon="5.51277">
        <ele>442.79998779297</ele>
        <time>2021-12-03T13:11:56Z</time>
      </trkpt>
      <trkpt lat="43.86082" lon="5.51255">
        <ele>443.39999389648</ele>
        <time>2021-12-03T13:12:18Z</time>
      </trkpt>
      <trkpt lat="43.86063" lon="5.51231">
        <ele>444</ele>
        <time>2021-12-03T13:12:36Z</time>
      </trkpt>
      <trkpt lat="43.86055" lon="5.51228">
        <ele>445.39999389648</ele>
        <time>2021-12-03T13:12:55Z</time>
      </trkpt>
      <trkpt lat="43.86045" lon="5.51226">
        <ele>444.79998779297</ele>
        <time>2021-12-03T13:13:16Z</time>
      </trkpt>
      <trkpt lat="43.86024" lon="5.51248">
        <ele>441.79998779297</ele>
        <time>2021-12-03T13:13:43Z</time>
      </trkpt>
      <trkpt lat="43.86013" lon="5.51262">
        <ele>439.79998779297</ele>
        <time>2021-12-03T13:14:01Z</time>
      </trkpt>
      <trkpt lat="43.86008" lon="5.51264">
        <ele>439.39999389648</ele>
        <time>2021-12-03T13:14:10Z</time>
      </trkpt>
      <trkpt lat="43.85991" lon="5.51261">
        <ele>438.60000610352</ele>
        <time>2021-12-03T13:14:27Z</time>
      </trkpt>
      <trkpt lat="43.85974" lon="5.51264">
        <ele>437.79998779297</ele>
        <time>2021-12-03T13:14:45Z</time>
      </trkpt>
      <trkpt lat="43.85971" lon="5.51263">
        <ele>437.79998779297</ele>
        <time>2021-12-03T13:14:48Z</time>
      </trkpt>
      <trkpt lat="43.85961" lon="5.51261">
        <ele>437.79998779297</ele>
        <time>2021-12-03T13:14:57Z</time>
      </trkpt>
      <trkpt lat="43.85953" lon="5.51257">
        <ele>437.60000610352</ele>
        <time>2021-12-03T13:15:13Z</time>
      </trkpt>
      <trkpt lat="43.85953" lon="5.51259">
        <ele>436.79998779297</ele>
        <time>2021-12-03T13:15:31Z</time>
      </trkpt>
      <trkpt lat="43.85953" lon="5.5126">
        <ele>436.79998779297</ele>
        <time>2021-12-03T13:15:32Z</time>
      </trkpt>
      <trkpt lat="43.85957" lon="5.51261">
        <ele>436.79998779297</ele>
        <time>2021-12-03T13:15:37Z</time>
      </trkpt>
      <trkpt lat="43.8595" lon="5.51269">
        <ele>433.60000610352</ele>
        <time>2021-12-03T13:15:53Z</time>
      </trkpt>
      <trkpt lat="43.85936" lon="5.51278">
        <ele>430.20001220703</ele>
        <time>2021-12-03T13:16:08Z</time>
      </trkpt>
      <trkpt lat="43.85922" lon="5.51285">
        <ele>427.60000610352</ele>
        <time>2021-12-03T13:16:21Z</time>
      </trkpt>
      <trkpt lat="43.85915" lon="5.51294">
        <ele>425.39999389648</ele>
        <time>2021-12-03T13:16:33Z</time>
      </trkpt>
      <trkpt lat="43.85912" lon="5.51299">
        <ele>423.79998779297</ele>
        <time>2021-12-03T13:16:46Z</time>
      </trkpt>
      <trkpt lat="43.85893" lon="5.51308">
        <ele>421</ele>
        <time>2021-12-03T13:17:06Z</time>
      </trkpt>
      <trkpt lat="43.85883" lon="5.51311">
        <ele>420</ele>
        <time>2021-12-03T13:17:15Z</time>
      </trkpt>
      <trkpt lat="43.85873" lon="5.5131">
        <ele>417.60000610352</ele>
        <time>2021-12-03T13:17:28Z</time>
      </trkpt>
      <trkpt lat="43.8586" lon="5.51305">
        <ele>416.20001220703</ele>
        <time>2021-12-03T13:17:44Z</time>
      </trkpt>
      <trkpt lat="43.85852" lon="5.51302">
        <ele>414.79998779297</ele>
        <time>2021-12-03T13:18:01Z</time>
      </trkpt>
      <trkpt lat="43.85839" lon="5.513">
        <ele>414.20001220703</ele>
        <time>2021-12-03T13:18:14Z</time>
      </trkpt>
      <trkpt lat="43.85826" lon="5.51299">
        <ele>411.39999389648</ele>
        <time>2021-12-03T13:18:26Z</time>
      </trkpt>
      <trkpt lat="43.85808" lon="5.51308">
        <ele>408.79998779297</ele>
        <time>2021-12-03T13:18:46Z</time>
      </trkpt>
      <trkpt lat="43.85791" lon="5.51323">
        <ele>407</ele>
        <time>2021-12-03T13:19:06Z</time>
      </trkpt>
      <trkpt lat="43.85783" lon="5.5133">
        <ele>406</ele>
        <time>2021-12-03T13:19:15Z</time>
      </trkpt>
      <trkpt lat="43.85771" lon="5.51352">
        <ele>404.60000610352</ele>
        <time>2021-12-03T13:19:35Z</time>
      </trkpt>
      <trkpt lat="43.85765" lon="5.5138">
        <ele>401.60000610352</ele>
        <time>2021-12-03T13:19:52Z</time>
      </trkpt>
      <trkpt lat="43.85761" lon="5.51402">
        <ele>399</ele>
        <time>2021-12-03T13:20:08Z</time>
      </trkpt>
      <trkpt lat="43.85759" lon="5.51412">
        <ele>398</ele>
        <time>2021-12-03T13:20:15Z</time>
      </trkpt>
      <trkpt lat="43.85755" lon="5.51432">
        <ele>394.79998779297</ele>
        <time>2021-12-03T13:20:30Z</time>
      </trkpt>
      <trkpt lat="43.85748" lon="5.51457">
        <ele>391.79998779297</ele>
        <time>2021-12-03T13:20:47Z</time>
      </trkpt>
      <trkpt lat="43.85743" lon="5.51476">
        <ele>388.79998779297</ele>
        <time>2021-12-03T13:21:01Z</time>
      </trkpt>
      <trkpt lat="43.8574" lon="5.51487">
        <ele>386.79998779297</ele>
        <time>2021-12-03T13:21:14Z</time>
      </trkpt>
      <trkpt lat="43.85738" lon="5.51501">
        <ele>385.20001220703</ele>
        <time>2021-12-03T13:21:32Z</time>
      </trkpt>
      <trkpt lat="43.85728" lon="5.5153">
        <ele>382</ele>
        <time>2021-12-03T13:21:53Z</time>
      </trkpt>
      <trkpt lat="43.85726" lon="5.51558">
        <ele>380</ele>
        <time>2021-12-03T13:22:11Z</time>
      </trkpt>
      <trkpt lat="43.85726" lon="5.51559">
        <ele>379.60000610352</ele>
        <time>2021-12-03T13:22:12Z</time>
      </trkpt>
      <trkpt lat="43.85734" lon="5.51576">
        <ele>377.79998779297</ele>
        <time>2021-12-03T13:22:24Z</time>
      </trkpt>
      <trkpt lat="43.85737" lon="5.51584">
        <ele>377</ele>
        <time>2021-12-03T13:22:30Z</time>
      </trkpt>
      <trkpt lat="43.85732" lon="5.51607">
        <ele>373.60000610352</ele>
        <time>2021-12-03T13:22:48Z</time>
      </trkpt>
      <trkpt lat="43.85723" lon="5.51637">
        <ele>370.79998779297</ele>
        <time>2021-12-03T13:23:07Z</time>
      </trkpt>
      <trkpt lat="43.85722" lon="5.5164">
        <ele>370.60000610352</ele>
        <time>2021-12-03T13:23:09Z</time>
      </trkpt>
      <trkpt lat="43.85721" lon="5.51643">
        <ele>370.39999389648</ele>
        <time>2021-12-03T13:23:11Z</time>
      </trkpt>
      <trkpt lat="43.8572" lon="5.51645">
        <ele>370.20001220703</ele>
        <time>2021-12-03T13:23:12Z</time>
      </trkpt>
      <trkpt lat="43.85716" lon="5.51653">
        <ele>369.39999389648</ele>
        <time>2021-12-03T13:23:18Z</time>
      </trkpt>
      <trkpt lat="43.85712" lon="5.51673">
        <ele>366.20001220703</ele>
        <time>2021-12-03T13:23:34Z</time>
      </trkpt>
      <trkpt lat="43.85709" lon="5.51698">
        <ele>363.20001220703</ele>
        <time>2021-12-03T13:23:54Z</time>
      </trkpt>
      <trkpt lat="43.85698" lon="5.51721">
        <ele>360</ele>
        <time>2021-12-03T13:24:14Z</time>
      </trkpt>
      <trkpt lat="43.85688" lon="5.51742">
        <ele>357</ele>
        <time>2021-12-03T13:24:32Z</time>
      </trkpt>
      <trkpt lat="43.85674" lon="5.5177">
        <ele>354.20001220703</ele>
        <time>2021-12-03T13:24:54Z</time>
      </trkpt>
      <trkpt lat="43.85666" lon="5.51784">
        <ele>351.60000610352</ele>
        <time>2021-12-03T13:25:10Z</time>
      </trkpt>
      <trkpt lat="43.85663" lon="5.51789">
        <ele>350.79998779297</ele>
        <time>2021-12-03T13:25:14Z</time>
      </trkpt>
      <trkpt lat="43.85648" lon="5.51815">
        <ele>348.60000610352</ele>
        <time>2021-12-03T13:25:35Z</time>
      </trkpt>
      <trkpt lat="43.85646" lon="5.5183">
        <ele>348</ele>
        <time>2021-12-03T13:25:44Z</time>
      </trkpt>
      <trkpt lat="43.85646" lon="5.51835">
        <ele>347.79998779297</ele>
        <time>2021-12-03T13:25:49Z</time>
      </trkpt>
      <trkpt lat="43.85644" lon="5.51853">
        <ele>345</ele>
        <time>2021-12-03T13:26:04Z</time>
      </trkpt>
      <trkpt lat="43.85639" lon="5.51857">
        <ele>344.20001220703</ele>
        <time>2021-12-03T13:26:11Z</time>
      </trkpt>
      <trkpt lat="43.85637" lon="5.51859">
        <ele>344</ele>
        <time>2021-12-03T13:26:13Z</time>
      </trkpt>
      <trkpt lat="43.85635" lon="5.51859">
        <ele>343.39999389648</ele>
        <time>2021-12-03T13:26:16Z</time>
      </trkpt>
      <trkpt lat="43.8562" lon="5.51868">
        <ele>340.20001220703</ele>
        <time>2021-12-03T13:26:34Z</time>
      </trkpt>
      <trkpt lat="43.85611" lon="5.51877">
        <ele>338.79998779297</ele>
        <time>2021-12-03T13:26:47Z</time>
      </trkpt>
      <trkpt lat="43.85597" lon="5.51889">
        <ele>336.60000610352</ele>
        <time>2021-12-03T13:27:04Z</time>
      </trkpt>
      <trkpt lat="43.85582" lon="5.51901">
        <ele>334.79998779297</ele>
        <time>2021-12-03T13:27:21Z</time>
      </trkpt>
      <trkpt lat="43.85571" lon="5.5191">
        <ele>333.39999389648</ele>
        <time>2021-12-03T13:27:40Z</time>
      </trkpt>
      <trkpt lat="43.85556" lon="5.51926">
        <ele>332</ele>
        <time>2021-12-03T13:28:03Z</time>
      </trkpt>
      <trkpt lat="43.85544" lon="5.51947">
        <ele>330.39999389648</ele>
        <time>2021-12-03T13:28:21Z</time>
      </trkpt>
      <trkpt lat="43.85547" lon="5.51969">
        <ele>328.20001220703</ele>
        <time>2021-12-03T13:28:42Z</time>
      </trkpt>
      <trkpt lat="43.85561" lon="5.51988">
        <ele>325.39999389648</ele>
        <time>2021-12-03T13:29:07Z</time>
      </trkpt>
      <trkpt lat="43.8556" lon="5.52006">
        <ele>322.60000610352</ele>
        <time>2021-12-03T13:29:28Z</time>
      </trkpt>
      <trkpt lat="43.85544" lon="5.52009">
        <ele>320</ele>
        <time>2021-12-03T13:29:48Z</time>
      </trkpt>
      <trkpt lat="43.8553" lon="5.52009">
        <ele>319</ele>
        <time>2021-12-03T13:30:02Z</time>
      </trkpt>
      <trkpt lat="43.85513" lon="5.52007">
        <ele>317.60000610352</ele>
        <time>2021-12-03T13:30:19Z</time>
      </trkpt>
      <trkpt lat="43.85499" lon="5.52005">
        <ele>316.20001220703</ele>
        <time>2021-12-03T13:30:32Z</time>
      </trkpt>
      <trkpt lat="43.85489" lon="5.52004">
        <ele>315</ele>
        <time>2021-12-03T13:30:42Z</time>
      </trkpt>
      <trkpt lat="43.85483" lon="5.52003">
        <ele>314.79998779297</ele>
        <time>2021-12-03T13:30:49Z</time>
      </trkpt>
      <trkpt lat="43.85478" lon="5.52003">
        <ele>314.20001220703</ele>
        <time>2021-12-03T13:30:53Z</time>
      </trkpt>
      <trkpt lat="43.85461" lon="5.51995">
        <ele>312.39999389648</ele>
        <time>2021-12-03T13:31:12Z</time>
      </trkpt>
      <trkpt lat="43.85452" lon="5.51995">
        <ele>311.20001220703</ele>
        <time>2021-12-03T13:31:21Z</time>
      </trkpt>
      <trkpt lat="43.85448" lon="5.51994">
        <ele>310.60000610352</ele>
        <time>2021-12-03T13:31:25Z</time>
      </trkpt>
      <trkpt lat="43.8544" lon="5.5198">
        <ele>309.60000610352</ele>
        <time>2021-12-03T13:31:40Z</time>
      </trkpt>
      <trkpt lat="43.85428" lon="5.51985">
        <ele>307.79998779297</ele>
        <time>2021-12-03T13:31:58Z</time>
      </trkpt>
      <trkpt lat="43.85425" lon="5.51973">
        <ele>306</ele>
        <time>2021-12-03T13:32:21Z</time>
      </trkpt>
      <trkpt lat="43.85423" lon="5.5197">
        <ele>306</ele>
        <time>2021-12-03T13:32:41Z</time>
      </trkpt>
    </trkseg>
  </trk>
</gpx>